<?xml version="1.0" encoding="UTF-8" standalone="no" ?>
<gpx xmlns="http://www.topografix.com/GPX/1/1" xmlns:xsi="http://www.w3.org/2001/XMLSchema-instance" xsi:schemaLocation="http://www.topografix.com/GPX/1/1 http://www.topografix.com/GPX/1/1/gpx.xsd" version="1.1" creator="VisuGPX - https://www.visugpx.com">
  <metadata>
    <name>83-D-Villecroze</name>
    <desc><![CDATA[83-D-Villecroze : sur la piste du pont romain
2020-02-02
]]></desc>
  </metadata>
  <trk>
    <name><![CDATA[2020-02-02-D-Villecroze]]></name>
    <trkseg>
      <trkpt lat="43.5655" lon="6.29357">
        <ele>314.9</ele>
        <time>2020-02-02T08:19:07Z</time>
      </trkpt>
      <trkpt lat="43.5655" lon="6.29357">
        <ele>314.6</ele>
        <time>2020-02-02T08:19:08Z</time>
      </trkpt>
      <trkpt lat="43.56558" lon="6.29351">
        <ele>310</ele>
        <time>2020-02-02T08:19:44Z</time>
      </trkpt>
      <trkpt lat="43.56551" lon="6.29359">
        <ele>309.1</ele>
        <time>2020-02-02T08:20:09Z</time>
      </trkpt>
      <trkpt lat="43.56561" lon="6.29359">
        <ele>307.5</ele>
        <time>2020-02-02T08:20:57Z</time>
      </trkpt>
      <trkpt lat="43.56551" lon="6.29357">
        <ele>307.9</ele>
        <time>2020-02-02T08:22:03Z</time>
      </trkpt>
      <trkpt lat="43.56546" lon="6.29348">
        <ele>307.8</ele>
        <time>2020-02-02T08:22:16Z</time>
      </trkpt>
      <trkpt lat="43.56551" lon="6.29358">
        <ele>309.3</ele>
        <time>2020-02-02T08:24:44Z</time>
      </trkpt>
      <trkpt lat="43.5656" lon="6.29363">
        <ele>309.5</ele>
        <time>2020-02-02T08:25:00Z</time>
      </trkpt>
      <trkpt lat="43.56567" lon="6.29371">
        <ele>309.9</ele>
        <time>2020-02-02T08:25:09Z</time>
      </trkpt>
      <trkpt lat="43.56572" lon="6.29382">
        <ele>310.5</ele>
        <time>2020-02-02T08:25:44Z</time>
      </trkpt>
      <trkpt lat="43.56571" lon="6.29395">
        <ele>310.6</ele>
        <time>2020-02-02T08:25:53Z</time>
      </trkpt>
      <trkpt lat="43.56573" lon="6.29408">
        <ele>310.9</ele>
        <time>2020-02-02T08:26:03Z</time>
      </trkpt>
      <trkpt lat="43.56577" lon="6.29419">
        <ele>311</ele>
        <time>2020-02-02T08:26:13Z</time>
      </trkpt>
      <trkpt lat="43.56572" lon="6.29431">
        <ele>311.8</ele>
        <time>2020-02-02T08:26:31Z</time>
      </trkpt>
      <trkpt lat="43.56567" lon="6.29441">
        <ele>312.2</ele>
        <time>2020-02-02T08:26:42Z</time>
      </trkpt>
      <trkpt lat="43.56563" lon="6.29453">
        <ele>312.5</ele>
        <time>2020-02-02T08:26:57Z</time>
      </trkpt>
      <trkpt lat="43.56558" lon="6.29463">
        <ele>312.7</ele>
        <time>2020-02-02T08:27:06Z</time>
      </trkpt>
      <trkpt lat="43.56553" lon="6.29475">
        <ele>313</ele>
        <time>2020-02-02T08:27:15Z</time>
      </trkpt>
      <trkpt lat="43.56548" lon="6.29485">
        <ele>313.1</ele>
        <time>2020-02-02T08:27:25Z</time>
      </trkpt>
      <trkpt lat="43.56541" lon="6.29496">
        <ele>313.2</ele>
        <time>2020-02-02T08:27:34Z</time>
      </trkpt>
      <trkpt lat="43.56532" lon="6.29502">
        <ele>313.4</ele>
        <time>2020-02-02T08:27:43Z</time>
      </trkpt>
      <trkpt lat="43.56523" lon="6.29506">
        <ele>313.5</ele>
        <time>2020-02-02T08:27:50Z</time>
      </trkpt>
      <trkpt lat="43.56514" lon="6.29513">
        <ele>314</ele>
        <time>2020-02-02T08:28:01Z</time>
      </trkpt>
      <trkpt lat="43.56509" lon="6.29524">
        <ele>314.5</ele>
        <time>2020-02-02T08:28:09Z</time>
      </trkpt>
      <trkpt lat="43.56503" lon="6.29536">
        <ele>314.8</ele>
        <time>2020-02-02T08:28:16Z</time>
      </trkpt>
      <trkpt lat="43.56499" lon="6.29547">
        <ele>315.1</ele>
        <time>2020-02-02T08:28:23Z</time>
      </trkpt>
      <trkpt lat="43.56496" lon="6.29559">
        <ele>315.5</ele>
        <time>2020-02-02T08:28:31Z</time>
      </trkpt>
      <trkpt lat="43.56491" lon="6.29571">
        <ele>316</ele>
        <time>2020-02-02T08:28:40Z</time>
      </trkpt>
      <trkpt lat="43.56488" lon="6.29584">
        <ele>316.5</ele>
        <time>2020-02-02T08:28:49Z</time>
      </trkpt>
      <trkpt lat="43.56485" lon="6.29597">
        <ele>317.3</ele>
        <time>2020-02-02T08:28:59Z</time>
      </trkpt>
      <trkpt lat="43.5648" lon="6.2961">
        <ele>317.6</ele>
        <time>2020-02-02T08:29:07Z</time>
      </trkpt>
      <trkpt lat="43.56475" lon="6.29621">
        <ele>318.2</ele>
        <time>2020-02-02T08:29:17Z</time>
      </trkpt>
      <trkpt lat="43.56471" lon="6.29634">
        <ele>318.6</ele>
        <time>2020-02-02T08:29:25Z</time>
      </trkpt>
      <trkpt lat="43.56468" lon="6.29646">
        <ele>319</ele>
        <time>2020-02-02T08:29:35Z</time>
      </trkpt>
      <trkpt lat="43.56464" lon="6.29657">
        <ele>320</ele>
        <time>2020-02-02T08:30:12Z</time>
      </trkpt>
      <trkpt lat="43.56457" lon="6.29667">
        <ele>320.5</ele>
        <time>2020-02-02T08:30:30Z</time>
      </trkpt>
      <trkpt lat="43.56458" lon="6.2968">
        <ele>320.7</ele>
        <time>2020-02-02T08:30:48Z</time>
      </trkpt>
      <trkpt lat="43.56457" lon="6.29692">
        <ele>321.7</ele>
        <time>2020-02-02T08:31:04Z</time>
      </trkpt>
      <trkpt lat="43.56453" lon="6.29705">
        <ele>322.4</ele>
        <time>2020-02-02T08:31:14Z</time>
      </trkpt>
      <trkpt lat="43.56451" lon="6.29718">
        <ele>323.1</ele>
        <time>2020-02-02T08:31:22Z</time>
      </trkpt>
      <trkpt lat="43.56447" lon="6.2973">
        <ele>324</ele>
        <time>2020-02-02T08:31:35Z</time>
      </trkpt>
      <trkpt lat="43.56444" lon="6.29743">
        <ele>324.7</ele>
        <time>2020-02-02T08:31:45Z</time>
      </trkpt>
      <trkpt lat="43.56437" lon="6.29753">
        <ele>325.8</ele>
        <time>2020-02-02T08:31:54Z</time>
      </trkpt>
      <trkpt lat="43.56435" lon="6.29765">
        <ele>326.5</ele>
        <time>2020-02-02T08:32:02Z</time>
      </trkpt>
      <trkpt lat="43.56436" lon="6.29778">
        <ele>327.1</ele>
        <time>2020-02-02T08:32:09Z</time>
      </trkpt>
      <trkpt lat="43.56435" lon="6.29791">
        <ele>327.7</ele>
        <time>2020-02-02T08:32:18Z</time>
      </trkpt>
      <trkpt lat="43.56432" lon="6.29803">
        <ele>328.5</ele>
        <time>2020-02-02T08:32:28Z</time>
      </trkpt>
      <trkpt lat="43.56428" lon="6.29815">
        <ele>329</ele>
        <time>2020-02-02T08:32:36Z</time>
      </trkpt>
      <trkpt lat="43.56424" lon="6.29826">
        <ele>329.5</ele>
        <time>2020-02-02T08:32:45Z</time>
      </trkpt>
      <trkpt lat="43.5642" lon="6.29838">
        <ele>329.8</ele>
        <time>2020-02-02T08:32:53Z</time>
      </trkpt>
      <trkpt lat="43.56414" lon="6.2985">
        <ele>330.1</ele>
        <time>2020-02-02T08:33:01Z</time>
      </trkpt>
      <trkpt lat="43.56409" lon="6.29861">
        <ele>330.5</ele>
        <time>2020-02-02T08:33:09Z</time>
      </trkpt>
      <trkpt lat="43.56404" lon="6.29871">
        <ele>330.9</ele>
        <time>2020-02-02T08:33:16Z</time>
      </trkpt>
      <trkpt lat="43.56399" lon="6.29883">
        <ele>331.2</ele>
        <time>2020-02-02T08:33:26Z</time>
      </trkpt>
      <trkpt lat="43.56393" lon="6.29893">
        <ele>331.5</ele>
        <time>2020-02-02T08:33:35Z</time>
      </trkpt>
      <trkpt lat="43.56388" lon="6.29904">
        <ele>331.8</ele>
        <time>2020-02-02T08:33:44Z</time>
      </trkpt>
      <trkpt lat="43.56382" lon="6.29915">
        <ele>332</ele>
        <time>2020-02-02T08:33:51Z</time>
      </trkpt>
      <trkpt lat="43.5638" lon="6.29927">
        <ele>332.8</ele>
        <time>2020-02-02T08:34:01Z</time>
      </trkpt>
      <trkpt lat="43.56374" lon="6.29936">
        <ele>333.5</ele>
        <time>2020-02-02T08:34:09Z</time>
      </trkpt>
      <trkpt lat="43.56367" lon="6.29945">
        <ele>333.8</ele>
        <time>2020-02-02T08:34:15Z</time>
      </trkpt>
      <trkpt lat="43.56361" lon="6.29956">
        <ele>334.1</ele>
        <time>2020-02-02T08:34:23Z</time>
      </trkpt>
      <trkpt lat="43.5636" lon="6.29969">
        <ele>334.8</ele>
        <time>2020-02-02T08:34:33Z</time>
      </trkpt>
      <trkpt lat="43.56358" lon="6.29981">
        <ele>335.3</ele>
        <time>2020-02-02T08:34:40Z</time>
      </trkpt>
      <trkpt lat="43.56353" lon="6.29993">
        <ele>335.7</ele>
        <time>2020-02-02T08:34:48Z</time>
      </trkpt>
      <trkpt lat="43.56346" lon="6.30003">
        <ele>336</ele>
        <time>2020-02-02T08:34:56Z</time>
      </trkpt>
      <trkpt lat="43.56339" lon="6.30012">
        <ele>336.2</ele>
        <time>2020-02-02T08:35:04Z</time>
      </trkpt>
      <trkpt lat="43.56337" lon="6.30025">
        <ele>336.8</ele>
        <time>2020-02-02T08:35:14Z</time>
      </trkpt>
      <trkpt lat="43.5633" lon="6.30035">
        <ele>337.1</ele>
        <time>2020-02-02T08:35:24Z</time>
      </trkpt>
      <trkpt lat="43.56329" lon="6.30047">
        <ele>337.5</ele>
        <time>2020-02-02T08:35:34Z</time>
      </trkpt>
      <trkpt lat="43.56332" lon="6.3006">
        <ele>338</ele>
        <time>2020-02-02T08:35:44Z</time>
      </trkpt>
      <trkpt lat="43.56335" lon="6.30072">
        <ele>339.2</ele>
        <time>2020-02-02T08:35:56Z</time>
      </trkpt>
      <trkpt lat="43.56337" lon="6.30085">
        <ele>339.9</ele>
        <time>2020-02-02T08:36:05Z</time>
      </trkpt>
      <trkpt lat="43.5634" lon="6.30098">
        <ele>341.1</ele>
        <time>2020-02-02T08:36:16Z</time>
      </trkpt>
      <trkpt lat="43.56344" lon="6.3011">
        <ele>342.7</ele>
        <time>2020-02-02T08:36:30Z</time>
      </trkpt>
      <trkpt lat="43.56349" lon="6.3012">
        <ele>344.3</ele>
        <time>2020-02-02T08:36:42Z</time>
      </trkpt>
      <trkpt lat="43.56354" lon="6.30131">
        <ele>345.1</ele>
        <time>2020-02-02T08:36:50Z</time>
      </trkpt>
      <trkpt lat="43.56357" lon="6.30143">
        <ele>346.4</ele>
        <time>2020-02-02T08:37:01Z</time>
      </trkpt>
      <trkpt lat="43.5636" lon="6.30155">
        <ele>347.9</ele>
        <time>2020-02-02T08:37:14Z</time>
      </trkpt>
      <trkpt lat="43.56354" lon="6.30164">
        <ele>349.3</ele>
        <time>2020-02-02T08:37:28Z</time>
      </trkpt>
      <trkpt lat="43.56347" lon="6.30173">
        <ele>350</ele>
        <time>2020-02-02T08:37:37Z</time>
      </trkpt>
      <trkpt lat="43.56342" lon="6.30184">
        <ele>351</ele>
        <time>2020-02-02T08:37:48Z</time>
      </trkpt>
      <trkpt lat="43.56335" lon="6.30193">
        <ele>351.6</ele>
        <time>2020-02-02T08:37:58Z</time>
      </trkpt>
      <trkpt lat="43.56327" lon="6.30202">
        <ele>352.2</ele>
        <time>2020-02-02T08:38:07Z</time>
      </trkpt>
      <trkpt lat="43.56318" lon="6.30205">
        <ele>352.6</ele>
        <time>2020-02-02T08:38:17Z</time>
      </trkpt>
      <trkpt lat="43.56308" lon="6.30205">
        <ele>352.5</ele>
        <time>2020-02-02T08:38:25Z</time>
      </trkpt>
      <trkpt lat="43.56298" lon="6.30205">
        <ele>352.1</ele>
        <time>2020-02-02T08:38:33Z</time>
      </trkpt>
      <trkpt lat="43.56289" lon="6.30208">
        <ele>351.8</ele>
        <time>2020-02-02T08:38:43Z</time>
      </trkpt>
      <trkpt lat="43.56281" lon="6.30215">
        <ele>351.9</ele>
        <time>2020-02-02T08:38:52Z</time>
      </trkpt>
      <trkpt lat="43.56272" lon="6.30218">
        <ele>351.9</ele>
        <time>2020-02-02T08:39:00Z</time>
      </trkpt>
      <trkpt lat="43.56263" lon="6.30222">
        <ele>351.8</ele>
        <time>2020-02-02T08:39:13Z</time>
      </trkpt>
      <trkpt lat="43.56254" lon="6.30227">
        <ele>352</ele>
        <time>2020-02-02T08:39:22Z</time>
      </trkpt>
      <trkpt lat="43.56244" lon="6.30226">
        <ele>352.2</ele>
        <time>2020-02-02T08:39:31Z</time>
      </trkpt>
      <trkpt lat="43.56245" lon="6.30213">
        <ele>351.7</ele>
        <time>2020-02-02T08:39:51Z</time>
      </trkpt>
      <trkpt lat="43.56239" lon="6.30203">
        <ele>350.6</ele>
        <time>2020-02-02T08:40:53Z</time>
      </trkpt>
      <trkpt lat="43.5623" lon="6.30206">
        <ele>349.2</ele>
        <time>2020-02-02T08:43:22Z</time>
      </trkpt>
      <trkpt lat="43.5622" lon="6.30209">
        <ele>349.5</ele>
        <time>2020-02-02T08:43:31Z</time>
      </trkpt>
      <trkpt lat="43.56211" lon="6.30211">
        <ele>349.9</ele>
        <time>2020-02-02T08:43:40Z</time>
      </trkpt>
      <trkpt lat="43.56202" lon="6.30217">
        <ele>350.5</ele>
        <time>2020-02-02T08:43:50Z</time>
      </trkpt>
      <trkpt lat="43.56196" lon="6.30226">
        <ele>352.2</ele>
        <time>2020-02-02T08:44:05Z</time>
      </trkpt>
      <trkpt lat="43.56188" lon="6.30232">
        <ele>352.8</ele>
        <time>2020-02-02T08:44:12Z</time>
      </trkpt>
      <trkpt lat="43.56178" lon="6.30231">
        <ele>352.7</ele>
        <time>2020-02-02T08:45:31Z</time>
      </trkpt>
      <trkpt lat="43.56171" lon="6.30238">
        <ele>352.5</ele>
        <time>2020-02-02T08:45:48Z</time>
      </trkpt>
      <trkpt lat="43.56163" lon="6.30244">
        <ele>352.5</ele>
        <time>2020-02-02T08:45:57Z</time>
      </trkpt>
      <trkpt lat="43.56155" lon="6.30252">
        <ele>352.4</ele>
        <time>2020-02-02T08:46:07Z</time>
      </trkpt>
      <trkpt lat="43.56148" lon="6.30259">
        <ele>352.3</ele>
        <time>2020-02-02T08:46:15Z</time>
      </trkpt>
      <trkpt lat="43.56143" lon="6.3027">
        <ele>352.2</ele>
        <time>2020-02-02T08:46:25Z</time>
      </trkpt>
      <trkpt lat="43.56135" lon="6.3028">
        <ele>351.9</ele>
        <time>2020-02-02T08:46:34Z</time>
      </trkpt>
      <trkpt lat="43.56131" lon="6.30292">
        <ele>351.4</ele>
        <time>2020-02-02T08:46:45Z</time>
      </trkpt>
      <trkpt lat="43.56129" lon="6.30306">
        <ele>351.2</ele>
        <time>2020-02-02T08:46:53Z</time>
      </trkpt>
      <trkpt lat="43.56128" lon="6.30319">
        <ele>351.2</ele>
        <time>2020-02-02T08:47:03Z</time>
      </trkpt>
      <trkpt lat="43.56128" lon="6.30332">
        <ele>351.2</ele>
        <time>2020-02-02T08:47:12Z</time>
      </trkpt>
      <trkpt lat="43.56128" lon="6.30345">
        <ele>351.2</ele>
        <time>2020-02-02T08:47:20Z</time>
      </trkpt>
      <trkpt lat="43.56126" lon="6.30358">
        <ele>351.2</ele>
        <time>2020-02-02T08:47:29Z</time>
      </trkpt>
      <trkpt lat="43.56125" lon="6.30371">
        <ele>351.2</ele>
        <time>2020-02-02T08:47:39Z</time>
      </trkpt>
      <trkpt lat="43.56123" lon="6.30384">
        <ele>351.2</ele>
        <time>2020-02-02T08:47:46Z</time>
      </trkpt>
      <trkpt lat="43.56121" lon="6.30398">
        <ele>351.2</ele>
        <time>2020-02-02T08:47:56Z</time>
      </trkpt>
      <trkpt lat="43.56121" lon="6.3041">
        <ele>351.4</ele>
        <time>2020-02-02T08:48:06Z</time>
      </trkpt>
      <trkpt lat="43.56119" lon="6.30423">
        <ele>351.5</ele>
        <time>2020-02-02T08:48:12Z</time>
      </trkpt>
      <trkpt lat="43.56115" lon="6.30436">
        <ele>351.6</ele>
        <time>2020-02-02T08:48:19Z</time>
      </trkpt>
      <trkpt lat="43.56112" lon="6.30448">
        <ele>351.9</ele>
        <time>2020-02-02T08:48:26Z</time>
      </trkpt>
      <trkpt lat="43.5611" lon="6.3046">
        <ele>352.1</ele>
        <time>2020-02-02T08:48:34Z</time>
      </trkpt>
      <trkpt lat="43.56108" lon="6.30473">
        <ele>352.3</ele>
        <time>2020-02-02T08:48:44Z</time>
      </trkpt>
      <trkpt lat="43.56107" lon="6.30486">
        <ele>352.4</ele>
        <time>2020-02-02T08:48:51Z</time>
      </trkpt>
      <trkpt lat="43.56102" lon="6.30499">
        <ele>352.9</ele>
        <time>2020-02-02T08:48:58Z</time>
      </trkpt>
      <trkpt lat="43.56099" lon="6.3051">
        <ele>353</ele>
        <time>2020-02-02T08:49:08Z</time>
      </trkpt>
      <trkpt lat="43.56096" lon="6.30524">
        <ele>353.1</ele>
        <time>2020-02-02T08:49:18Z</time>
      </trkpt>
      <trkpt lat="43.56095" lon="6.30537">
        <ele>353.1</ele>
        <time>2020-02-02T08:49:28Z</time>
      </trkpt>
      <trkpt lat="43.5609" lon="6.30549">
        <ele>353.4</ele>
        <time>2020-02-02T08:49:37Z</time>
      </trkpt>
      <trkpt lat="43.56086" lon="6.30561">
        <ele>353.6</ele>
        <time>2020-02-02T08:49:45Z</time>
      </trkpt>
      <trkpt lat="43.56085" lon="6.30575">
        <ele>354.1</ele>
        <time>2020-02-02T08:49:54Z</time>
      </trkpt>
      <trkpt lat="43.56083" lon="6.30588">
        <ele>354.5</ele>
        <time>2020-02-02T08:50:03Z</time>
      </trkpt>
      <trkpt lat="43.56079" lon="6.30599">
        <ele>355.5</ele>
        <time>2020-02-02T08:50:12Z</time>
      </trkpt>
      <trkpt lat="43.56075" lon="6.30611">
        <ele>356.3</ele>
        <time>2020-02-02T08:50:23Z</time>
      </trkpt>
      <trkpt lat="43.56072" lon="6.30624">
        <ele>357.2</ele>
        <time>2020-02-02T08:50:33Z</time>
      </trkpt>
      <trkpt lat="43.56071" lon="6.30636">
        <ele>358.1</ele>
        <time>2020-02-02T08:50:41Z</time>
      </trkpt>
      <trkpt lat="43.56069" lon="6.30649">
        <ele>359.2</ele>
        <time>2020-02-02T08:50:53Z</time>
      </trkpt>
      <trkpt lat="43.56069" lon="6.30662">
        <ele>360.1</ele>
        <time>2020-02-02T08:51:03Z</time>
      </trkpt>
      <trkpt lat="43.56065" lon="6.30675">
        <ele>360.9</ele>
        <time>2020-02-02T08:51:12Z</time>
      </trkpt>
      <trkpt lat="43.56059" lon="6.30684">
        <ele>361.6</ele>
        <time>2020-02-02T08:51:22Z</time>
      </trkpt>
      <trkpt lat="43.56055" lon="6.30696">
        <ele>361.9</ele>
        <time>2020-02-02T08:51:28Z</time>
      </trkpt>
      <trkpt lat="43.56051" lon="6.30708">
        <ele>362.1</ele>
        <time>2020-02-02T08:51:36Z</time>
      </trkpt>
      <trkpt lat="43.56046" lon="6.30719">
        <ele>362.4</ele>
        <time>2020-02-02T08:51:45Z</time>
      </trkpt>
      <trkpt lat="43.56042" lon="6.30731">
        <ele>362.5</ele>
        <time>2020-02-02T08:51:53Z</time>
      </trkpt>
      <trkpt lat="43.56037" lon="6.30743">
        <ele>362.7</ele>
        <time>2020-02-02T08:52:01Z</time>
      </trkpt>
      <trkpt lat="43.56034" lon="6.30755">
        <ele>363.2</ele>
        <time>2020-02-02T08:52:12Z</time>
      </trkpt>
      <trkpt lat="43.56031" lon="6.30768">
        <ele>363.3</ele>
        <time>2020-02-02T08:52:20Z</time>
      </trkpt>
      <trkpt lat="43.56028" lon="6.3078">
        <ele>363.4</ele>
        <time>2020-02-02T08:52:27Z</time>
      </trkpt>
      <trkpt lat="43.56026" lon="6.30792">
        <ele>363.5</ele>
        <time>2020-02-02T08:52:35Z</time>
      </trkpt>
      <trkpt lat="43.56022" lon="6.30804">
        <ele>363.4</ele>
        <time>2020-02-02T08:52:43Z</time>
      </trkpt>
      <trkpt lat="43.56023" lon="6.30818">
        <ele>363.3</ele>
        <time>2020-02-02T08:52:53Z</time>
      </trkpt>
      <trkpt lat="43.56023" lon="6.30831">
        <ele>363.3</ele>
        <time>2020-02-02T08:53:02Z</time>
      </trkpt>
      <trkpt lat="43.56022" lon="6.30845">
        <ele>363.4</ele>
        <time>2020-02-02T08:53:10Z</time>
      </trkpt>
      <trkpt lat="43.56023" lon="6.30858">
        <ele>363.7</ele>
        <time>2020-02-02T08:53:18Z</time>
      </trkpt>
      <trkpt lat="43.56025" lon="6.30871">
        <ele>364.1</ele>
        <time>2020-02-02T08:53:27Z</time>
      </trkpt>
      <trkpt lat="43.56018" lon="6.3088">
        <ele>365.2</ele>
        <time>2020-02-02T08:53:51Z</time>
      </trkpt>
      <trkpt lat="43.56027" lon="6.30886">
        <ele>365.7</ele>
        <time>2020-02-02T08:54:25Z</time>
      </trkpt>
      <trkpt lat="43.56029" lon="6.30899">
        <ele>366.2</ele>
        <time>2020-02-02T08:54:38Z</time>
      </trkpt>
      <trkpt lat="43.56034" lon="6.30909">
        <ele>366.7</ele>
        <time>2020-02-02T08:54:48Z</time>
      </trkpt>
      <trkpt lat="43.56042" lon="6.30918">
        <ele>367.3</ele>
        <time>2020-02-02T08:54:57Z</time>
      </trkpt>
      <trkpt lat="43.56046" lon="6.30929">
        <ele>367.6</ele>
        <time>2020-02-02T08:55:07Z</time>
      </trkpt>
      <trkpt lat="43.56048" lon="6.30942">
        <ele>367.7</ele>
        <time>2020-02-02T08:55:14Z</time>
      </trkpt>
      <trkpt lat="43.56052" lon="6.30953">
        <ele>367.8</ele>
        <time>2020-02-02T08:55:24Z</time>
      </trkpt>
      <trkpt lat="43.56055" lon="6.30966">
        <ele>367.8</ele>
        <time>2020-02-02T08:55:33Z</time>
      </trkpt>
      <trkpt lat="43.56057" lon="6.30979">
        <ele>367.8</ele>
        <time>2020-02-02T08:55:42Z</time>
      </trkpt>
      <trkpt lat="43.5606" lon="6.3099">
        <ele>367.7</ele>
        <time>2020-02-02T08:55:52Z</time>
      </trkpt>
      <trkpt lat="43.56066" lon="6.31001">
        <ele>367.6</ele>
        <time>2020-02-02T08:56:00Z</time>
      </trkpt>
      <trkpt lat="43.56069" lon="6.31013">
        <ele>367.7</ele>
        <time>2020-02-02T08:56:08Z</time>
      </trkpt>
      <trkpt lat="43.56067" lon="6.31026">
        <ele>367.8</ele>
        <time>2020-02-02T08:56:16Z</time>
      </trkpt>
      <trkpt lat="43.56071" lon="6.31038">
        <ele>368.2</ele>
        <time>2020-02-02T08:56:25Z</time>
      </trkpt>
      <trkpt lat="43.56077" lon="6.31047">
        <ele>368.6</ele>
        <time>2020-02-02T08:56:34Z</time>
      </trkpt>
      <trkpt lat="43.56082" lon="6.3106">
        <ele>368.8</ele>
        <time>2020-02-02T08:56:44Z</time>
      </trkpt>
      <trkpt lat="43.56084" lon="6.31072">
        <ele>368.8</ele>
        <time>2020-02-02T08:56:54Z</time>
      </trkpt>
      <trkpt lat="43.56087" lon="6.31085">
        <ele>368.8</ele>
        <time>2020-02-02T08:57:04Z</time>
      </trkpt>
      <trkpt lat="43.56089" lon="6.31098">
        <ele>369.1</ele>
        <time>2020-02-02T08:57:12Z</time>
      </trkpt>
      <trkpt lat="43.56091" lon="6.3111">
        <ele>369.5</ele>
        <time>2020-02-02T08:57:21Z</time>
      </trkpt>
      <trkpt lat="43.56092" lon="6.31123">
        <ele>369.7</ele>
        <time>2020-02-02T08:57:31Z</time>
      </trkpt>
      <trkpt lat="43.56096" lon="6.31134">
        <ele>369.8</ele>
        <time>2020-02-02T08:57:39Z</time>
      </trkpt>
      <trkpt lat="43.56101" lon="6.31148">
        <ele>370.2</ele>
        <time>2020-02-02T08:57:47Z</time>
      </trkpt>
      <trkpt lat="43.56102" lon="6.31161">
        <ele>370.5</ele>
        <time>2020-02-02T08:57:56Z</time>
      </trkpt>
      <trkpt lat="43.56109" lon="6.31169">
        <ele>370.5</ele>
        <time>2020-02-02T08:58:03Z</time>
      </trkpt>
      <trkpt lat="43.56118" lon="6.31173">
        <ele>370.8</ele>
        <time>2020-02-02T08:58:13Z</time>
      </trkpt>
      <trkpt lat="43.56127" lon="6.31176">
        <ele>371</ele>
        <time>2020-02-02T08:58:28Z</time>
      </trkpt>
      <trkpt lat="43.56133" lon="6.31187">
        <ele>371.3</ele>
        <time>2020-02-02T08:58:42Z</time>
      </trkpt>
      <trkpt lat="43.56131" lon="6.312">
        <ele>371.6</ele>
        <time>2020-02-02T08:58:54Z</time>
      </trkpt>
      <trkpt lat="43.56129" lon="6.31214">
        <ele>372.1</ele>
        <time>2020-02-02T08:59:05Z</time>
      </trkpt>
      <trkpt lat="43.56126" lon="6.31226">
        <ele>373.3</ele>
        <time>2020-02-02T08:59:20Z</time>
      </trkpt>
      <trkpt lat="43.56132" lon="6.31236">
        <ele>373.7</ele>
        <time>2020-02-02T08:59:31Z</time>
      </trkpt>
      <trkpt lat="43.5614" lon="6.31243">
        <ele>374.3</ele>
        <time>2020-02-02T09:00:01Z</time>
      </trkpt>
      <trkpt lat="43.56149" lon="6.31247">
        <ele>374.5</ele>
        <time>2020-02-02T09:00:09Z</time>
      </trkpt>
      <trkpt lat="43.56155" lon="6.31258">
        <ele>374.9</ele>
        <time>2020-02-02T09:00:19Z</time>
      </trkpt>
      <trkpt lat="43.56154" lon="6.31271">
        <ele>375.3</ele>
        <time>2020-02-02T09:00:28Z</time>
      </trkpt>
      <trkpt lat="43.56152" lon="6.31284">
        <ele>375.6</ele>
        <time>2020-02-02T09:00:37Z</time>
      </trkpt>
      <trkpt lat="43.56155" lon="6.31296">
        <ele>375.9</ele>
        <time>2020-02-02T09:00:45Z</time>
      </trkpt>
      <trkpt lat="43.56158" lon="6.31308">
        <ele>376.6</ele>
        <time>2020-02-02T09:01:06Z</time>
      </trkpt>
      <trkpt lat="43.56162" lon="6.3132">
        <ele>378.7</ele>
        <time>2020-02-02T09:02:54Z</time>
      </trkpt>
      <trkpt lat="43.56166" lon="6.31332">
        <ele>378.6</ele>
        <time>2020-02-02T09:03:02Z</time>
      </trkpt>
      <trkpt lat="43.56172" lon="6.31341">
        <ele>378.5</ele>
        <time>2020-02-02T09:03:23Z</time>
      </trkpt>
      <trkpt lat="43.56175" lon="6.31353">
        <ele>378.9</ele>
        <time>2020-02-02T09:03:35Z</time>
      </trkpt>
      <trkpt lat="43.56179" lon="6.31366">
        <ele>379.6</ele>
        <time>2020-02-02T09:03:45Z</time>
      </trkpt>
      <trkpt lat="43.56187" lon="6.31375">
        <ele>380</ele>
        <time>2020-02-02T09:03:52Z</time>
      </trkpt>
      <trkpt lat="43.56192" lon="6.31385">
        <ele>380.4</ele>
        <time>2020-02-02T09:03:59Z</time>
      </trkpt>
      <trkpt lat="43.56197" lon="6.31397">
        <ele>381.2</ele>
        <time>2020-02-02T09:04:10Z</time>
      </trkpt>
      <trkpt lat="43.562" lon="6.31409">
        <ele>382.2</ele>
        <time>2020-02-02T09:04:19Z</time>
      </trkpt>
      <trkpt lat="43.56207" lon="6.31418">
        <ele>383.3</ele>
        <time>2020-02-02T09:04:28Z</time>
      </trkpt>
      <trkpt lat="43.56211" lon="6.31429">
        <ele>384.4</ele>
        <time>2020-02-02T09:04:38Z</time>
      </trkpt>
      <trkpt lat="43.56215" lon="6.31442">
        <ele>385.6</ele>
        <time>2020-02-02T09:04:49Z</time>
      </trkpt>
      <trkpt lat="43.56218" lon="6.31453">
        <ele>386.4</ele>
        <time>2020-02-02T09:05:02Z</time>
      </trkpt>
      <trkpt lat="43.56225" lon="6.31463">
        <ele>386.3</ele>
        <time>2020-02-02T09:05:12Z</time>
      </trkpt>
      <trkpt lat="43.5623" lon="6.31473">
        <ele>385.2</ele>
        <time>2020-02-02T09:05:27Z</time>
      </trkpt>
      <trkpt lat="43.56221" lon="6.31475">
        <ele>382.6</ele>
        <time>2020-02-02T09:06:54Z</time>
      </trkpt>
      <trkpt lat="43.56212" lon="6.3147">
        <ele>381.4</ele>
        <time>2020-02-02T09:07:06Z</time>
      </trkpt>
      <trkpt lat="43.56205" lon="6.31462">
        <ele>379.7</ele>
        <time>2020-02-02T09:07:17Z</time>
      </trkpt>
      <trkpt lat="43.56197" lon="6.31455">
        <ele>378.4</ele>
        <time>2020-02-02T09:07:26Z</time>
      </trkpt>
      <trkpt lat="43.56191" lon="6.31445">
        <ele>377.9</ele>
        <time>2020-02-02T09:07:35Z</time>
      </trkpt>
      <trkpt lat="43.56187" lon="6.31434">
        <ele>377.3</ele>
        <time>2020-02-02T09:07:44Z</time>
      </trkpt>
      <trkpt lat="43.56183" lon="6.31422">
        <ele>376.4</ele>
        <time>2020-02-02T09:07:53Z</time>
      </trkpt>
      <trkpt lat="43.56176" lon="6.31413">
        <ele>375</ele>
        <time>2020-02-02T09:08:03Z</time>
      </trkpt>
      <trkpt lat="43.56169" lon="6.31403">
        <ele>373.6</ele>
        <time>2020-02-02T09:08:14Z</time>
      </trkpt>
      <trkpt lat="43.56165" lon="6.31391">
        <ele>372.5</ele>
        <time>2020-02-02T09:08:22Z</time>
      </trkpt>
      <trkpt lat="43.56162" lon="6.31378">
        <ele>371.5</ele>
        <time>2020-02-02T09:08:33Z</time>
      </trkpt>
      <trkpt lat="43.56161" lon="6.31364">
        <ele>370.9</ele>
        <time>2020-02-02T09:08:41Z</time>
      </trkpt>
      <trkpt lat="43.56157" lon="6.31353">
        <ele>370.5</ele>
        <time>2020-02-02T09:08:48Z</time>
      </trkpt>
      <trkpt lat="43.56148" lon="6.31346">
        <ele>369.6</ele>
        <time>2020-02-02T09:08:56Z</time>
      </trkpt>
      <trkpt lat="43.56139" lon="6.3135">
        <ele>368.6</ele>
        <time>2020-02-02T09:09:05Z</time>
      </trkpt>
      <trkpt lat="43.56135" lon="6.31362">
        <ele>367.3</ele>
        <time>2020-02-02T09:09:19Z</time>
      </trkpt>
      <trkpt lat="43.56137" lon="6.31374">
        <ele>367.2</ele>
        <time>2020-02-02T09:09:29Z</time>
      </trkpt>
      <trkpt lat="43.5614" lon="6.31387">
        <ele>367.2</ele>
        <time>2020-02-02T09:09:39Z</time>
      </trkpt>
      <trkpt lat="43.56141" lon="6.314">
        <ele>367.1</ele>
        <time>2020-02-02T09:09:49Z</time>
      </trkpt>
      <trkpt lat="43.56145" lon="6.31411">
        <ele>367.3</ele>
        <time>2020-02-02T09:10:40Z</time>
      </trkpt>
      <trkpt lat="43.56144" lon="6.31424">
        <ele>367.6</ele>
        <time>2020-02-02T09:11:04Z</time>
      </trkpt>
      <trkpt lat="43.56152" lon="6.31431">
        <ele>367.9</ele>
        <time>2020-02-02T09:11:26Z</time>
      </trkpt>
      <trkpt lat="43.56143" lon="6.3143">
        <ele>367.9</ele>
        <time>2020-02-02T09:11:48Z</time>
      </trkpt>
      <trkpt lat="43.56136" lon="6.31421">
        <ele>367.7</ele>
        <time>2020-02-02T09:12:02Z</time>
      </trkpt>
      <trkpt lat="43.56126" lon="6.31421">
        <ele>367.4</ele>
        <time>2020-02-02T09:12:13Z</time>
      </trkpt>
      <trkpt lat="43.56117" lon="6.31421">
        <ele>367.5</ele>
        <time>2020-02-02T09:12:22Z</time>
      </trkpt>
      <trkpt lat="43.56107" lon="6.31422">
        <ele>367.6</ele>
        <time>2020-02-02T09:12:33Z</time>
      </trkpt>
      <trkpt lat="43.56115" lon="6.31428">
        <ele>368.5</ele>
        <time>2020-02-02T09:13:33Z</time>
      </trkpt>
      <trkpt lat="43.56125" lon="6.31432">
        <ele>367.9</ele>
        <time>2020-02-02T09:14:08Z</time>
      </trkpt>
      <trkpt lat="43.56135" lon="6.31432">
        <ele>368</ele>
        <time>2020-02-02T09:14:17Z</time>
      </trkpt>
      <trkpt lat="43.56144" lon="6.31431">
        <ele>368</ele>
        <time>2020-02-02T09:14:26Z</time>
      </trkpt>
      <trkpt lat="43.56147" lon="6.31419">
        <ele>368.1</ele>
        <time>2020-02-02T09:14:43Z</time>
      </trkpt>
      <trkpt lat="43.56151" lon="6.31407">
        <ele>368.2</ele>
        <time>2020-02-02T09:14:51Z</time>
      </trkpt>
      <trkpt lat="43.56147" lon="6.31395">
        <ele>368.1</ele>
        <time>2020-02-02T09:14:58Z</time>
      </trkpt>
      <trkpt lat="43.56142" lon="6.31383">
        <ele>368</ele>
        <time>2020-02-02T09:15:06Z</time>
      </trkpt>
      <trkpt lat="43.56142" lon="6.3137">
        <ele>367.7</ele>
        <time>2020-02-02T09:15:19Z</time>
      </trkpt>
      <trkpt lat="43.5614" lon="6.31357">
        <ele>367.4</ele>
        <time>2020-02-02T09:15:29Z</time>
      </trkpt>
      <trkpt lat="43.56145" lon="6.31346">
        <ele>367.5</ele>
        <time>2020-02-02T09:15:43Z</time>
      </trkpt>
      <trkpt lat="43.56153" lon="6.31352">
        <ele>368.3</ele>
        <time>2020-02-02T09:16:00Z</time>
      </trkpt>
      <trkpt lat="43.5616" lon="6.31362">
        <ele>369.2</ele>
        <time>2020-02-02T09:16:10Z</time>
      </trkpt>
      <trkpt lat="43.5616" lon="6.31375">
        <ele>369.9</ele>
        <time>2020-02-02T09:16:22Z</time>
      </trkpt>
      <trkpt lat="43.56162" lon="6.31387">
        <ele>370.2</ele>
        <time>2020-02-02T09:16:32Z</time>
      </trkpt>
      <trkpt lat="43.56163" lon="6.314">
        <ele>370.5</ele>
        <time>2020-02-02T09:16:41Z</time>
      </trkpt>
      <trkpt lat="43.56168" lon="6.31412">
        <ele>371</ele>
        <time>2020-02-02T09:16:51Z</time>
      </trkpt>
      <trkpt lat="43.56173" lon="6.31422">
        <ele>372</ele>
        <time>2020-02-02T09:17:05Z</time>
      </trkpt>
      <trkpt lat="43.56179" lon="6.31434">
        <ele>373</ele>
        <time>2020-02-02T09:17:18Z</time>
      </trkpt>
      <trkpt lat="43.56183" lon="6.31445">
        <ele>373.8</ele>
        <time>2020-02-02T09:17:30Z</time>
      </trkpt>
      <trkpt lat="43.56187" lon="6.31457">
        <ele>374.4</ele>
        <time>2020-02-02T09:17:42Z</time>
      </trkpt>
      <trkpt lat="43.56195" lon="6.31466">
        <ele>375</ele>
        <time>2020-02-02T09:17:51Z</time>
      </trkpt>
      <trkpt lat="43.56202" lon="6.31474">
        <ele>375.9</ele>
        <time>2020-02-02T09:18:02Z</time>
      </trkpt>
      <trkpt lat="43.56211" lon="6.3148">
        <ele>377.4</ele>
        <time>2020-02-02T09:18:16Z</time>
      </trkpt>
      <trkpt lat="43.5622" lon="6.31483">
        <ele>378.9</ele>
        <time>2020-02-02T09:18:29Z</time>
      </trkpt>
      <trkpt lat="43.56229" lon="6.31481">
        <ele>381.3</ele>
        <time>2020-02-02T09:18:49Z</time>
      </trkpt>
      <trkpt lat="43.56222" lon="6.31473">
        <ele>382.9</ele>
        <time>2020-02-02T09:19:10Z</time>
      </trkpt>
      <trkpt lat="43.56228" lon="6.31482">
        <ele>383</ele>
        <time>2020-02-02T09:20:30Z</time>
      </trkpt>
      <trkpt lat="43.56234" lon="6.31491">
        <ele>383.4</ele>
        <time>2020-02-02T09:20:46Z</time>
      </trkpt>
      <trkpt lat="43.56243" lon="6.31495">
        <ele>383.9</ele>
        <time>2020-02-02T09:20:58Z</time>
      </trkpt>
      <trkpt lat="43.56253" lon="6.31492">
        <ele>384.8</ele>
        <time>2020-02-02T09:21:11Z</time>
      </trkpt>
      <trkpt lat="43.5626" lon="6.31486">
        <ele>386.9</ele>
        <time>2020-02-02T09:21:32Z</time>
      </trkpt>
      <trkpt lat="43.56262" lon="6.31473">
        <ele>389.3</ele>
        <time>2020-02-02T09:21:49Z</time>
      </trkpt>
      <trkpt lat="43.56258" lon="6.31461">
        <ele>390.4</ele>
        <time>2020-02-02T09:22:01Z</time>
      </trkpt>
      <trkpt lat="43.56252" lon="6.31451">
        <ele>391.5</ele>
        <time>2020-02-02T09:22:15Z</time>
      </trkpt>
      <trkpt lat="43.56252" lon="6.31439">
        <ele>392.6</ele>
        <time>2020-02-02T09:22:27Z</time>
      </trkpt>
      <trkpt lat="43.56256" lon="6.31427">
        <ele>393.8</ele>
        <time>2020-02-02T09:22:40Z</time>
      </trkpt>
      <trkpt lat="43.56264" lon="6.3143">
        <ele>395.8</ele>
        <time>2020-02-02T09:22:57Z</time>
      </trkpt>
      <trkpt lat="43.56274" lon="6.3143">
        <ele>398.2</ele>
        <time>2020-02-02T09:23:19Z</time>
      </trkpt>
      <trkpt lat="43.56283" lon="6.31433">
        <ele>399.8</ele>
        <time>2020-02-02T09:23:37Z</time>
      </trkpt>
      <trkpt lat="43.56291" lon="6.31426">
        <ele>401</ele>
        <time>2020-02-02T09:23:49Z</time>
      </trkpt>
      <trkpt lat="43.56292" lon="6.31414">
        <ele>402.2</ele>
        <time>2020-02-02T09:24:02Z</time>
      </trkpt>
      <trkpt lat="43.56296" lon="6.31401">
        <ele>403.2</ele>
        <time>2020-02-02T09:24:15Z</time>
      </trkpt>
      <trkpt lat="43.563" lon="6.31389">
        <ele>404.2</ele>
        <time>2020-02-02T09:24:25Z</time>
      </trkpt>
      <trkpt lat="43.56304" lon="6.31378">
        <ele>404.7</ele>
        <time>2020-02-02T09:24:36Z</time>
      </trkpt>
      <trkpt lat="43.56308" lon="6.31366">
        <ele>406.3</ele>
        <time>2020-02-02T09:24:55Z</time>
      </trkpt>
      <trkpt lat="43.56316" lon="6.3136">
        <ele>409.5</ele>
        <time>2020-02-02T09:25:22Z</time>
      </trkpt>
      <trkpt lat="43.56324" lon="6.31354">
        <ele>412.4</ele>
        <time>2020-02-02T09:25:44Z</time>
      </trkpt>
      <trkpt lat="43.56333" lon="6.31349">
        <ele>414.1</ele>
        <time>2020-02-02T09:25:56Z</time>
      </trkpt>
      <trkpt lat="43.56341" lon="6.31344">
        <ele>415.4</ele>
        <time>2020-02-02T09:26:09Z</time>
      </trkpt>
      <trkpt lat="43.56348" lon="6.31336">
        <ele>417.1</ele>
        <time>2020-02-02T09:26:23Z</time>
      </trkpt>
      <trkpt lat="43.56356" lon="6.31327">
        <ele>418.9</ele>
        <time>2020-02-02T09:26:35Z</time>
      </trkpt>
      <trkpt lat="43.56363" lon="6.31318">
        <ele>420</ele>
        <time>2020-02-02T09:26:44Z</time>
      </trkpt>
      <trkpt lat="43.56371" lon="6.31311">
        <ele>420.7</ele>
        <time>2020-02-02T09:26:53Z</time>
      </trkpt>
      <trkpt lat="43.56377" lon="6.31301">
        <ele>421.9</ele>
        <time>2020-02-02T09:27:06Z</time>
      </trkpt>
      <trkpt lat="43.56386" lon="6.31296">
        <ele>423.2</ele>
        <time>2020-02-02T09:27:20Z</time>
      </trkpt>
      <trkpt lat="43.56392" lon="6.31286">
        <ele>424.5</ele>
        <time>2020-02-02T09:27:33Z</time>
      </trkpt>
      <trkpt lat="43.56401" lon="6.31279">
        <ele>425.8</ele>
        <time>2020-02-02T09:27:56Z</time>
      </trkpt>
      <trkpt lat="43.56409" lon="6.31275">
        <ele>425.5</ele>
        <time>2020-02-02T09:28:05Z</time>
      </trkpt>
      <trkpt lat="43.56417" lon="6.31269">
        <ele>426</ele>
        <time>2020-02-02T09:28:18Z</time>
      </trkpt>
      <trkpt lat="43.56426" lon="6.31265">
        <ele>426.1</ele>
        <time>2020-02-02T09:28:31Z</time>
      </trkpt>
      <trkpt lat="43.56434" lon="6.31259">
        <ele>426.4</ele>
        <time>2020-02-02T09:28:43Z</time>
      </trkpt>
      <trkpt lat="43.56443" lon="6.31255">
        <ele>427.3</ele>
        <time>2020-02-02T09:28:52Z</time>
      </trkpt>
      <trkpt lat="43.56451" lon="6.31249">
        <ele>428.1</ele>
        <time>2020-02-02T09:29:00Z</time>
      </trkpt>
      <trkpt lat="43.56459" lon="6.31244">
        <ele>428.6</ele>
        <time>2020-02-02T09:29:09Z</time>
      </trkpt>
      <trkpt lat="43.56467" lon="6.31236">
        <ele>429.1</ele>
        <time>2020-02-02T09:29:21Z</time>
      </trkpt>
      <trkpt lat="43.56474" lon="6.31228">
        <ele>429.9</ele>
        <time>2020-02-02T09:29:33Z</time>
      </trkpt>
      <trkpt lat="43.56481" lon="6.31219">
        <ele>430.6</ele>
        <time>2020-02-02T09:29:43Z</time>
      </trkpt>
      <trkpt lat="43.56488" lon="6.31211">
        <ele>430.9</ele>
        <time>2020-02-02T09:29:51Z</time>
      </trkpt>
      <trkpt lat="43.56497" lon="6.31203">
        <ele>431.5</ele>
        <time>2020-02-02T09:30:08Z</time>
      </trkpt>
      <trkpt lat="43.56504" lon="6.31194">
        <ele>432</ele>
        <time>2020-02-02T09:30:19Z</time>
      </trkpt>
      <trkpt lat="43.56509" lon="6.31183">
        <ele>432.9</ele>
        <time>2020-02-02T09:31:02Z</time>
      </trkpt>
      <trkpt lat="43.56518" lon="6.31178">
        <ele>433.4</ele>
        <time>2020-02-02T09:31:16Z</time>
      </trkpt>
      <trkpt lat="43.56513" lon="6.31167">
        <ele>433.6</ele>
        <time>2020-02-02T09:31:41Z</time>
      </trkpt>
      <trkpt lat="43.56506" lon="6.31175">
        <ele>432.9</ele>
        <time>2020-02-02T09:32:24Z</time>
      </trkpt>
      <trkpt lat="43.56514" lon="6.31183">
        <ele>432.7</ele>
        <time>2020-02-02T09:34:22Z</time>
      </trkpt>
      <trkpt lat="43.56523" lon="6.31178">
        <ele>432.8</ele>
        <time>2020-02-02T09:35:13Z</time>
      </trkpt>
      <trkpt lat="43.56514" lon="6.31182">
        <ele>433.7</ele>
        <time>2020-02-02T09:35:51Z</time>
      </trkpt>
      <trkpt lat="43.56522" lon="6.31174">
        <ele>435.3</ele>
        <time>2020-02-02T09:36:33Z</time>
      </trkpt>
      <trkpt lat="43.56529" lon="6.31165">
        <ele>435.1</ele>
        <time>2020-02-02T09:36:43Z</time>
      </trkpt>
      <trkpt lat="43.56533" lon="6.31153">
        <ele>435.2</ele>
        <time>2020-02-02T09:37:02Z</time>
      </trkpt>
      <trkpt lat="43.5654" lon="6.31145">
        <ele>435.8</ele>
        <time>2020-02-02T09:37:14Z</time>
      </trkpt>
      <trkpt lat="43.56546" lon="6.31136">
        <ele>435.9</ele>
        <time>2020-02-02T09:37:22Z</time>
      </trkpt>
      <trkpt lat="43.56554" lon="6.31128">
        <ele>436.4</ele>
        <time>2020-02-02T09:37:32Z</time>
      </trkpt>
      <trkpt lat="43.56563" lon="6.31123">
        <ele>436.2</ele>
        <time>2020-02-02T09:38:00Z</time>
      </trkpt>
      <trkpt lat="43.5657" lon="6.31114">
        <ele>437.1</ele>
        <time>2020-02-02T09:38:40Z</time>
      </trkpt>
      <trkpt lat="43.56576" lon="6.31105">
        <ele>437.5</ele>
        <time>2020-02-02T09:38:50Z</time>
      </trkpt>
      <trkpt lat="43.56583" lon="6.31096">
        <ele>437.5</ele>
        <time>2020-02-02T09:38:59Z</time>
      </trkpt>
      <trkpt lat="43.5659" lon="6.31086">
        <ele>437.7</ele>
        <time>2020-02-02T09:39:10Z</time>
      </trkpt>
      <trkpt lat="43.56597" lon="6.31079">
        <ele>437.8</ele>
        <time>2020-02-02T09:39:19Z</time>
      </trkpt>
      <trkpt lat="43.56605" lon="6.31071">
        <ele>438.2</ele>
        <time>2020-02-02T09:39:30Z</time>
      </trkpt>
      <trkpt lat="43.56612" lon="6.31063">
        <ele>438.7</ele>
        <time>2020-02-02T09:39:38Z</time>
      </trkpt>
      <trkpt lat="43.56619" lon="6.31055">
        <ele>439.2</ele>
        <time>2020-02-02T09:39:49Z</time>
      </trkpt>
      <trkpt lat="43.56627" lon="6.31048">
        <ele>439.1</ele>
        <time>2020-02-02T09:40:00Z</time>
      </trkpt>
      <trkpt lat="43.56634" lon="6.31037">
        <ele>438.8</ele>
        <time>2020-02-02T09:40:11Z</time>
      </trkpt>
      <trkpt lat="43.56642" lon="6.31032">
        <ele>439</ele>
        <time>2020-02-02T09:40:20Z</time>
      </trkpt>
      <trkpt lat="43.56649" lon="6.31024">
        <ele>438.9</ele>
        <time>2020-02-02T09:40:27Z</time>
      </trkpt>
      <trkpt lat="43.56655" lon="6.31014">
        <ele>439.2</ele>
        <time>2020-02-02T09:40:35Z</time>
      </trkpt>
      <trkpt lat="43.5666" lon="6.31002">
        <ele>439.1</ele>
        <time>2020-02-02T09:40:45Z</time>
      </trkpt>
      <trkpt lat="43.56667" lon="6.30993">
        <ele>439.1</ele>
        <time>2020-02-02T09:40:52Z</time>
      </trkpt>
      <trkpt lat="43.56674" lon="6.30983">
        <ele>439.2</ele>
        <time>2020-02-02T09:41:02Z</time>
      </trkpt>
      <trkpt lat="43.56681" lon="6.30975">
        <ele>439.2</ele>
        <time>2020-02-02T09:41:10Z</time>
      </trkpt>
      <trkpt lat="43.56688" lon="6.30965">
        <ele>439</ele>
        <time>2020-02-02T09:41:20Z</time>
      </trkpt>
      <trkpt lat="43.56695" lon="6.30956">
        <ele>439.5</ele>
        <time>2020-02-02T09:41:32Z</time>
      </trkpt>
      <trkpt lat="43.56705" lon="6.3095">
        <ele>439.7</ele>
        <time>2020-02-02T09:41:38Z</time>
      </trkpt>
      <trkpt lat="43.56714" lon="6.30946">
        <ele>439.6</ele>
        <time>2020-02-02T09:41:48Z</time>
      </trkpt>
      <trkpt lat="43.56721" lon="6.30937">
        <ele>439.4</ele>
        <time>2020-02-02T09:41:56Z</time>
      </trkpt>
      <trkpt lat="43.56728" lon="6.30928">
        <ele>438.9</ele>
        <time>2020-02-02T09:42:06Z</time>
      </trkpt>
      <trkpt lat="43.56733" lon="6.30917">
        <ele>439</ele>
        <time>2020-02-02T09:42:15Z</time>
      </trkpt>
      <trkpt lat="43.56736" lon="6.30905">
        <ele>439</ele>
        <time>2020-02-02T09:42:23Z</time>
      </trkpt>
      <trkpt lat="43.56741" lon="6.30893">
        <ele>438.4</ele>
        <time>2020-02-02T09:42:33Z</time>
      </trkpt>
      <trkpt lat="43.56744" lon="6.30882">
        <ele>438</ele>
        <time>2020-02-02T09:42:44Z</time>
      </trkpt>
      <trkpt lat="43.56752" lon="6.30872">
        <ele>437.6</ele>
        <time>2020-02-02T09:42:53Z</time>
      </trkpt>
      <trkpt lat="43.56759" lon="6.30864">
        <ele>436.3</ele>
        <time>2020-02-02T09:43:02Z</time>
      </trkpt>
      <trkpt lat="43.56765" lon="6.30855">
        <ele>435.9</ele>
        <time>2020-02-02T09:43:08Z</time>
      </trkpt>
      <trkpt lat="43.56773" lon="6.30847">
        <ele>435.2</ele>
        <time>2020-02-02T09:43:18Z</time>
      </trkpt>
      <trkpt lat="43.56781" lon="6.30839">
        <ele>434.7</ele>
        <time>2020-02-02T09:43:26Z</time>
      </trkpt>
      <trkpt lat="43.56788" lon="6.3083">
        <ele>434.6</ele>
        <time>2020-02-02T09:43:34Z</time>
      </trkpt>
      <trkpt lat="43.56797" lon="6.30826">
        <ele>433.8</ele>
        <time>2020-02-02T09:43:43Z</time>
      </trkpt>
      <trkpt lat="43.56806" lon="6.30821">
        <ele>433.2</ele>
        <time>2020-02-02T09:43:53Z</time>
      </trkpt>
      <trkpt lat="43.56816" lon="6.3082">
        <ele>432.8</ele>
        <time>2020-02-02T09:44:01Z</time>
      </trkpt>
      <trkpt lat="43.56825" lon="6.30817">
        <ele>432.8</ele>
        <time>2020-02-02T09:44:10Z</time>
      </trkpt>
      <trkpt lat="43.56834" lon="6.30814">
        <ele>432.5</ele>
        <time>2020-02-02T09:44:18Z</time>
      </trkpt>
      <trkpt lat="43.56844" lon="6.3081">
        <ele>432.2</ele>
        <time>2020-02-02T09:44:26Z</time>
      </trkpt>
      <trkpt lat="43.56854" lon="6.30806">
        <ele>431.9</ele>
        <time>2020-02-02T09:44:37Z</time>
      </trkpt>
      <trkpt lat="43.56864" lon="6.30804">
        <ele>431.8</ele>
        <time>2020-02-02T09:44:45Z</time>
      </trkpt>
      <trkpt lat="43.56873" lon="6.30805">
        <ele>431.7</ele>
        <time>2020-02-02T09:44:54Z</time>
      </trkpt>
      <trkpt lat="43.56882" lon="6.30809">
        <ele>431.7</ele>
        <time>2020-02-02T09:45:02Z</time>
      </trkpt>
      <trkpt lat="43.56891" lon="6.30804">
        <ele>431.6</ele>
        <time>2020-02-02T09:45:11Z</time>
      </trkpt>
      <trkpt lat="43.569" lon="6.30799">
        <ele>431.5</ele>
        <time>2020-02-02T09:45:17Z</time>
      </trkpt>
      <trkpt lat="43.56909" lon="6.30794">
        <ele>431.5</ele>
        <time>2020-02-02T09:45:26Z</time>
      </trkpt>
      <trkpt lat="43.56919" lon="6.30788">
        <ele>431.3</ele>
        <time>2020-02-02T09:45:34Z</time>
      </trkpt>
      <trkpt lat="43.56922" lon="6.308">
        <ele>432.1</ele>
        <time>2020-02-02T09:46:28Z</time>
      </trkpt>
      <trkpt lat="43.56924" lon="6.30815">
        <ele>431.3</ele>
        <time>2020-02-02T09:46:37Z</time>
      </trkpt>
      <trkpt lat="43.56929" lon="6.30825">
        <ele>430.8</ele>
        <time>2020-02-02T09:46:47Z</time>
      </trkpt>
      <trkpt lat="43.56935" lon="6.30835">
        <ele>430.9</ele>
        <time>2020-02-02T09:46:56Z</time>
      </trkpt>
      <trkpt lat="43.56941" lon="6.30844">
        <ele>430.9</ele>
        <time>2020-02-02T09:47:06Z</time>
      </trkpt>
      <trkpt lat="43.56949" lon="6.30853">
        <ele>430.8</ele>
        <time>2020-02-02T09:47:15Z</time>
      </trkpt>
      <trkpt lat="43.56955" lon="6.30863">
        <ele>430.7</ele>
        <time>2020-02-02T09:47:22Z</time>
      </trkpt>
      <trkpt lat="43.56958" lon="6.30875">
        <ele>430.2</ele>
        <time>2020-02-02T09:47:32Z</time>
      </trkpt>
      <trkpt lat="43.56954" lon="6.30887">
        <ele>429.7</ele>
        <time>2020-02-02T09:47:42Z</time>
      </trkpt>
      <trkpt lat="43.56947" lon="6.30897">
        <ele>428.8</ele>
        <time>2020-02-02T09:47:52Z</time>
      </trkpt>
      <trkpt lat="43.56939" lon="6.30905">
        <ele>428.5</ele>
        <time>2020-02-02T09:48:00Z</time>
      </trkpt>
      <trkpt lat="43.56932" lon="6.30913">
        <ele>428.4</ele>
        <time>2020-02-02T09:48:07Z</time>
      </trkpt>
      <trkpt lat="43.56925" lon="6.30921">
        <ele>428</ele>
        <time>2020-02-02T09:48:15Z</time>
      </trkpt>
      <trkpt lat="43.56922" lon="6.30933">
        <ele>427.8</ele>
        <time>2020-02-02T09:48:25Z</time>
      </trkpt>
      <trkpt lat="43.56918" lon="6.30946">
        <ele>427.7</ele>
        <time>2020-02-02T09:48:31Z</time>
      </trkpt>
      <trkpt lat="43.56914" lon="6.30958">
        <ele>427.5</ele>
        <time>2020-02-02T09:48:39Z</time>
      </trkpt>
      <trkpt lat="43.5691" lon="6.3097">
        <ele>427</ele>
        <time>2020-02-02T09:48:47Z</time>
      </trkpt>
      <trkpt lat="43.56903" lon="6.30981">
        <ele>426.4</ele>
        <time>2020-02-02T09:48:56Z</time>
      </trkpt>
      <trkpt lat="43.56895" lon="6.30989">
        <ele>426</ele>
        <time>2020-02-02T09:49:04Z</time>
      </trkpt>
      <trkpt lat="43.56889" lon="6.30999">
        <ele>425.8</ele>
        <time>2020-02-02T09:49:13Z</time>
      </trkpt>
      <trkpt lat="43.56889" lon="6.31012">
        <ele>425.5</ele>
        <time>2020-02-02T09:49:21Z</time>
      </trkpt>
      <trkpt lat="43.56885" lon="6.31024">
        <ele>424.6</ele>
        <time>2020-02-02T09:49:30Z</time>
      </trkpt>
      <trkpt lat="43.56876" lon="6.31029">
        <ele>423.7</ele>
        <time>2020-02-02T09:49:38Z</time>
      </trkpt>
      <trkpt lat="43.56869" lon="6.31038">
        <ele>423.1</ele>
        <time>2020-02-02T09:49:47Z</time>
      </trkpt>
      <trkpt lat="43.56862" lon="6.31046">
        <ele>422.4</ele>
        <time>2020-02-02T09:49:56Z</time>
      </trkpt>
      <trkpt lat="43.56853" lon="6.31055">
        <ele>421.9</ele>
        <time>2020-02-02T09:50:04Z</time>
      </trkpt>
      <trkpt lat="43.56845" lon="6.31063">
        <ele>421.2</ele>
        <time>2020-02-02T09:50:13Z</time>
      </trkpt>
      <trkpt lat="43.56839" lon="6.31073">
        <ele>420.6</ele>
        <time>2020-02-02T09:50:20Z</time>
      </trkpt>
      <trkpt lat="43.5684" lon="6.31086">
        <ele>420</ele>
        <time>2020-02-02T09:50:28Z</time>
      </trkpt>
      <trkpt lat="43.56835" lon="6.31097">
        <ele>419</ele>
        <time>2020-02-02T09:50:37Z</time>
      </trkpt>
      <trkpt lat="43.56831" lon="6.31108">
        <ele>418.5</ele>
        <time>2020-02-02T09:50:44Z</time>
      </trkpt>
      <trkpt lat="43.56828" lon="6.3112">
        <ele>417.7</ele>
        <time>2020-02-02T09:50:53Z</time>
      </trkpt>
      <trkpt lat="43.56823" lon="6.31132">
        <ele>417.1</ele>
        <time>2020-02-02T09:51:02Z</time>
      </trkpt>
      <trkpt lat="43.56815" lon="6.31138">
        <ele>416.8</ele>
        <time>2020-02-02T09:51:12Z</time>
      </trkpt>
      <trkpt lat="43.5681" lon="6.31148">
        <ele>416.5</ele>
        <time>2020-02-02T09:51:19Z</time>
      </trkpt>
      <trkpt lat="43.56805" lon="6.31158">
        <ele>416.3</ele>
        <time>2020-02-02T09:51:34Z</time>
      </trkpt>
      <trkpt lat="43.5681" lon="6.31169">
        <ele>415.6</ele>
        <time>2020-02-02T09:52:01Z</time>
      </trkpt>
      <trkpt lat="43.5681" lon="6.31182">
        <ele>415.4</ele>
        <time>2020-02-02T09:53:16Z</time>
      </trkpt>
      <trkpt lat="43.56817" lon="6.31191">
        <ele>416</ele>
        <time>2020-02-02T09:53:28Z</time>
      </trkpt>
      <trkpt lat="43.56823" lon="6.31199">
        <ele>416.2</ele>
        <time>2020-02-02T09:53:38Z</time>
      </trkpt>
      <trkpt lat="43.56832" lon="6.31203">
        <ele>416.5</ele>
        <time>2020-02-02T09:54:14Z</time>
      </trkpt>
      <trkpt lat="43.5684" lon="6.31212">
        <ele>416.6</ele>
        <time>2020-02-02T09:54:26Z</time>
      </trkpt>
      <trkpt lat="43.56846" lon="6.31223">
        <ele>417.1</ele>
        <time>2020-02-02T09:54:36Z</time>
      </trkpt>
      <trkpt lat="43.5685" lon="6.31233">
        <ele>418</ele>
        <time>2020-02-02T09:54:48Z</time>
      </trkpt>
      <trkpt lat="43.56857" lon="6.31242">
        <ele>418.4</ele>
        <time>2020-02-02T09:54:59Z</time>
      </trkpt>
      <trkpt lat="43.56864" lon="6.3125">
        <ele>419.2</ele>
        <time>2020-02-02T09:55:10Z</time>
      </trkpt>
      <trkpt lat="43.56873" lon="6.31257">
        <ele>419.4</ele>
        <time>2020-02-02T09:55:20Z</time>
      </trkpt>
      <trkpt lat="43.56882" lon="6.31256">
        <ele>419.6</ele>
        <time>2020-02-02T09:55:30Z</time>
      </trkpt>
      <trkpt lat="43.56891" lon="6.31256">
        <ele>419.6</ele>
        <time>2020-02-02T09:55:41Z</time>
      </trkpt>
      <trkpt lat="43.56901" lon="6.31256">
        <ele>420</ele>
        <time>2020-02-02T09:55:54Z</time>
      </trkpt>
      <trkpt lat="43.56911" lon="6.31254">
        <ele>420.3</ele>
        <time>2020-02-02T09:56:06Z</time>
      </trkpt>
      <trkpt lat="43.5692" lon="6.31252">
        <ele>422</ele>
        <time>2020-02-02T09:56:19Z</time>
      </trkpt>
      <trkpt lat="43.56929" lon="6.31255">
        <ele>423.1</ele>
        <time>2020-02-02T09:56:32Z</time>
      </trkpt>
      <trkpt lat="43.56938" lon="6.31254">
        <ele>424.6</ele>
        <time>2020-02-02T09:56:43Z</time>
      </trkpt>
      <trkpt lat="43.56948" lon="6.31251">
        <ele>426.1</ele>
        <time>2020-02-02T09:56:57Z</time>
      </trkpt>
      <trkpt lat="43.56957" lon="6.31249">
        <ele>426.6</ele>
        <time>2020-02-02T09:57:04Z</time>
      </trkpt>
      <trkpt lat="43.56967" lon="6.31246">
        <ele>426.9</ele>
        <time>2020-02-02T09:57:14Z</time>
      </trkpt>
      <trkpt lat="43.56977" lon="6.31245">
        <ele>427.1</ele>
        <time>2020-02-02T09:57:26Z</time>
      </trkpt>
      <trkpt lat="43.56986" lon="6.31244">
        <ele>426.9</ele>
        <time>2020-02-02T09:57:35Z</time>
      </trkpt>
      <trkpt lat="43.56996" lon="6.31244">
        <ele>426.8</ele>
        <time>2020-02-02T09:57:43Z</time>
      </trkpt>
      <trkpt lat="43.57005" lon="6.31241">
        <ele>427.2</ele>
        <time>2020-02-02T09:57:51Z</time>
      </trkpt>
      <trkpt lat="43.57014" lon="6.31242">
        <ele>427.3</ele>
        <time>2020-02-02T09:58:02Z</time>
      </trkpt>
      <trkpt lat="43.57016" lon="6.31255">
        <ele>427.9</ele>
        <time>2020-02-02T09:58:17Z</time>
      </trkpt>
      <trkpt lat="43.57018" lon="6.31267">
        <ele>428.6</ele>
        <time>2020-02-02T09:58:26Z</time>
      </trkpt>
      <trkpt lat="43.57024" lon="6.31277">
        <ele>428.9</ele>
        <time>2020-02-02T09:58:37Z</time>
      </trkpt>
      <trkpt lat="43.57032" lon="6.31285">
        <ele>429.1</ele>
        <time>2020-02-02T09:58:47Z</time>
      </trkpt>
      <trkpt lat="43.57037" lon="6.31296">
        <ele>429.8</ele>
        <time>2020-02-02T09:58:57Z</time>
      </trkpt>
      <trkpt lat="43.57042" lon="6.31308">
        <ele>430</ele>
        <time>2020-02-02T09:59:07Z</time>
      </trkpt>
      <trkpt lat="43.57047" lon="6.31318">
        <ele>430.6</ele>
        <time>2020-02-02T09:59:17Z</time>
      </trkpt>
      <trkpt lat="43.57049" lon="6.31331">
        <ele>431.1</ele>
        <time>2020-02-02T09:59:31Z</time>
      </trkpt>
      <trkpt lat="43.57043" lon="6.31341">
        <ele>431.5</ele>
        <time>2020-02-02T09:59:42Z</time>
      </trkpt>
      <trkpt lat="43.57037" lon="6.3135">
        <ele>431.9</ele>
        <time>2020-02-02T09:59:52Z</time>
      </trkpt>
      <trkpt lat="43.5703" lon="6.31358">
        <ele>432.4</ele>
        <time>2020-02-02T10:00:02Z</time>
      </trkpt>
      <trkpt lat="43.5702" lon="6.3136">
        <ele>432.6</ele>
        <time>2020-02-02T10:00:11Z</time>
      </trkpt>
      <trkpt lat="43.57014" lon="6.31369">
        <ele>433.3</ele>
        <time>2020-02-02T10:00:22Z</time>
      </trkpt>
      <trkpt lat="43.57005" lon="6.31373">
        <ele>433</ele>
        <time>2020-02-02T10:00:29Z</time>
      </trkpt>
      <trkpt lat="43.56998" lon="6.31381">
        <ele>434.7</ele>
        <time>2020-02-02T10:00:39Z</time>
      </trkpt>
      <trkpt lat="43.56991" lon="6.3139">
        <ele>435.6</ele>
        <time>2020-02-02T10:00:52Z</time>
      </trkpt>
      <trkpt lat="43.5699" lon="6.31403">
        <ele>436.8</ele>
        <time>2020-02-02T10:01:03Z</time>
      </trkpt>
      <trkpt lat="43.56988" lon="6.31416">
        <ele>438.4</ele>
        <time>2020-02-02T10:01:15Z</time>
      </trkpt>
      <trkpt lat="43.56984" lon="6.31428">
        <ele>439.8</ele>
        <time>2020-02-02T10:01:28Z</time>
      </trkpt>
      <trkpt lat="43.56979" lon="6.31439">
        <ele>441.1</ele>
        <time>2020-02-02T10:01:41Z</time>
      </trkpt>
      <trkpt lat="43.56976" lon="6.31451">
        <ele>441.8</ele>
        <time>2020-02-02T10:01:51Z</time>
      </trkpt>
      <trkpt lat="43.56969" lon="6.31461">
        <ele>442</ele>
        <time>2020-02-02T10:02:01Z</time>
      </trkpt>
      <trkpt lat="43.5697" lon="6.31474">
        <ele>442.2</ele>
        <time>2020-02-02T10:02:09Z</time>
      </trkpt>
      <trkpt lat="43.56975" lon="6.31485">
        <ele>442.5</ele>
        <time>2020-02-02T10:02:18Z</time>
      </trkpt>
      <trkpt lat="43.56972" lon="6.31498">
        <ele>443.2</ele>
        <time>2020-02-02T10:02:28Z</time>
      </trkpt>
      <trkpt lat="43.56964" lon="6.31505">
        <ele>443.7</ele>
        <time>2020-02-02T10:02:38Z</time>
      </trkpt>
      <trkpt lat="43.56955" lon="6.31508">
        <ele>443.9</ele>
        <time>2020-02-02T10:02:46Z</time>
      </trkpt>
      <trkpt lat="43.56947" lon="6.31514">
        <ele>444.6</ele>
        <time>2020-02-02T10:02:56Z</time>
      </trkpt>
      <trkpt lat="43.5694" lon="6.31522">
        <ele>444.8</ele>
        <time>2020-02-02T10:03:06Z</time>
      </trkpt>
      <trkpt lat="43.56935" lon="6.31533">
        <ele>444.9</ele>
        <time>2020-02-02T10:03:14Z</time>
      </trkpt>
      <trkpt lat="43.56933" lon="6.31545">
        <ele>445.7</ele>
        <time>2020-02-02T10:03:22Z</time>
      </trkpt>
      <trkpt lat="43.56936" lon="6.31559">
        <ele>446</ele>
        <time>2020-02-02T10:03:31Z</time>
      </trkpt>
      <trkpt lat="43.56943" lon="6.31566">
        <ele>446.7</ele>
        <time>2020-02-02T10:03:39Z</time>
      </trkpt>
      <trkpt lat="43.56952" lon="6.31569">
        <ele>447.6</ele>
        <time>2020-02-02T10:03:50Z</time>
      </trkpt>
      <trkpt lat="43.56961" lon="6.31575">
        <ele>448.5</ele>
        <time>2020-02-02T10:04:01Z</time>
      </trkpt>
      <trkpt lat="43.5697" lon="6.31577">
        <ele>449.8</ele>
        <time>2020-02-02T10:04:13Z</time>
      </trkpt>
      <trkpt lat="43.56979" lon="6.31579">
        <ele>451.8</ele>
        <time>2020-02-02T10:04:34Z</time>
      </trkpt>
      <trkpt lat="43.56988" lon="6.31575">
        <ele>452.3</ele>
        <time>2020-02-02T10:06:01Z</time>
      </trkpt>
      <trkpt lat="43.56996" lon="6.31583">
        <ele>452.6</ele>
        <time>2020-02-02T10:07:55Z</time>
      </trkpt>
      <trkpt lat="43.57005" lon="6.31582">
        <ele>453.6</ele>
        <time>2020-02-02T10:08:11Z</time>
      </trkpt>
      <trkpt lat="43.57014" lon="6.31584">
        <ele>454.7</ele>
        <time>2020-02-02T10:08:24Z</time>
      </trkpt>
      <trkpt lat="43.57023" lon="6.31583">
        <ele>455.3</ele>
        <time>2020-02-02T10:08:35Z</time>
      </trkpt>
      <trkpt lat="43.57032" lon="6.31583">
        <ele>456.9</ele>
        <time>2020-02-02T10:08:45Z</time>
      </trkpt>
      <trkpt lat="43.57042" lon="6.31582">
        <ele>457.2</ele>
        <time>2020-02-02T10:08:57Z</time>
      </trkpt>
      <trkpt lat="43.57051" lon="6.31579">
        <ele>457.8</ele>
        <time>2020-02-02T10:09:09Z</time>
      </trkpt>
      <trkpt lat="43.5706" lon="6.31578">
        <ele>458.4</ele>
        <time>2020-02-02T10:09:25Z</time>
      </trkpt>
      <trkpt lat="43.5707" lon="6.31574">
        <ele>458.9</ele>
        <time>2020-02-02T10:09:33Z</time>
      </trkpt>
      <trkpt lat="43.57079" lon="6.31574">
        <ele>459.3</ele>
        <time>2020-02-02T10:09:42Z</time>
      </trkpt>
      <trkpt lat="43.57089" lon="6.31573">
        <ele>459.7</ele>
        <time>2020-02-02T10:09:52Z</time>
      </trkpt>
      <trkpt lat="43.57098" lon="6.31571">
        <ele>460.2</ele>
        <time>2020-02-02T10:10:02Z</time>
      </trkpt>
      <trkpt lat="43.57107" lon="6.31573">
        <ele>460.9</ele>
        <time>2020-02-02T10:10:12Z</time>
      </trkpt>
      <trkpt lat="43.57116" lon="6.31578">
        <ele>461.5</ele>
        <time>2020-02-02T10:10:21Z</time>
      </trkpt>
      <trkpt lat="43.57125" lon="6.31582">
        <ele>461.2</ele>
        <time>2020-02-02T10:10:29Z</time>
      </trkpt>
      <trkpt lat="43.57134" lon="6.31585">
        <ele>461</ele>
        <time>2020-02-02T10:10:38Z</time>
      </trkpt>
      <trkpt lat="43.57144" lon="6.31583">
        <ele>461.3</ele>
        <time>2020-02-02T10:10:46Z</time>
      </trkpt>
      <trkpt lat="43.57153" lon="6.31583">
        <ele>461.8</ele>
        <time>2020-02-02T10:10:58Z</time>
      </trkpt>
      <trkpt lat="43.57162" lon="6.31583">
        <ele>462</ele>
        <time>2020-02-02T10:11:04Z</time>
      </trkpt>
      <trkpt lat="43.5717" lon="6.31591">
        <ele>462.3</ele>
        <time>2020-02-02T10:11:17Z</time>
      </trkpt>
      <trkpt lat="43.57179" lon="6.31589">
        <ele>462</ele>
        <time>2020-02-02T10:11:47Z</time>
      </trkpt>
      <trkpt lat="43.57183" lon="6.31601">
        <ele>461.7</ele>
        <time>2020-02-02T10:12:04Z</time>
      </trkpt>
      <trkpt lat="43.57181" lon="6.31614">
        <ele>460.8</ele>
        <time>2020-02-02T10:12:15Z</time>
      </trkpt>
      <trkpt lat="43.57183" lon="6.31627">
        <ele>460.3</ele>
        <time>2020-02-02T10:12:25Z</time>
      </trkpt>
      <trkpt lat="43.57188" lon="6.31638">
        <ele>460</ele>
        <time>2020-02-02T10:12:34Z</time>
      </trkpt>
      <trkpt lat="43.57189" lon="6.31651">
        <ele>459.9</ele>
        <time>2020-02-02T10:12:46Z</time>
      </trkpt>
      <trkpt lat="43.57189" lon="6.31664">
        <ele>459.6</ele>
        <time>2020-02-02T10:12:57Z</time>
      </trkpt>
      <trkpt lat="43.57188" lon="6.31678">
        <ele>458.9</ele>
        <time>2020-02-02T10:13:08Z</time>
      </trkpt>
      <trkpt lat="43.57185" lon="6.31691">
        <ele>458.6</ele>
        <time>2020-02-02T10:13:17Z</time>
      </trkpt>
      <trkpt lat="43.57178" lon="6.31701">
        <ele>457.7</ele>
        <time>2020-02-02T10:13:25Z</time>
      </trkpt>
      <trkpt lat="43.57171" lon="6.31709">
        <ele>457</ele>
        <time>2020-02-02T10:13:35Z</time>
      </trkpt>
      <trkpt lat="43.57165" lon="6.31718">
        <ele>456</ele>
        <time>2020-02-02T10:13:45Z</time>
      </trkpt>
      <trkpt lat="43.57158" lon="6.31727">
        <ele>454.7</ele>
        <time>2020-02-02T10:13:57Z</time>
      </trkpt>
      <trkpt lat="43.57151" lon="6.31736">
        <ele>453.9</ele>
        <time>2020-02-02T10:14:07Z</time>
      </trkpt>
      <trkpt lat="43.57144" lon="6.31745">
        <ele>452.9</ele>
        <time>2020-02-02T10:14:20Z</time>
      </trkpt>
      <trkpt lat="43.57135" lon="6.3175">
        <ele>452.1</ele>
        <time>2020-02-02T10:14:31Z</time>
      </trkpt>
      <trkpt lat="43.57126" lon="6.31756">
        <ele>451.2</ele>
        <time>2020-02-02T10:14:42Z</time>
      </trkpt>
      <trkpt lat="43.5712" lon="6.31765">
        <ele>450.7</ele>
        <time>2020-02-02T10:14:51Z</time>
      </trkpt>
      <trkpt lat="43.57115" lon="6.31775">
        <ele>450</ele>
        <time>2020-02-02T10:15:01Z</time>
      </trkpt>
      <trkpt lat="43.57109" lon="6.31786">
        <ele>449.5</ele>
        <time>2020-02-02T10:15:11Z</time>
      </trkpt>
      <trkpt lat="43.57101" lon="6.31793">
        <ele>449</ele>
        <time>2020-02-02T10:15:21Z</time>
      </trkpt>
      <trkpt lat="43.57092" lon="6.31796">
        <ele>448</ele>
        <time>2020-02-02T10:15:32Z</time>
      </trkpt>
      <trkpt lat="43.57084" lon="6.31802">
        <ele>446.6</ele>
        <time>2020-02-02T10:15:46Z</time>
      </trkpt>
      <trkpt lat="43.57076" lon="6.31807">
        <ele>445.6</ele>
        <time>2020-02-02T10:15:56Z</time>
      </trkpt>
      <trkpt lat="43.5707" lon="6.31817">
        <ele>445</ele>
        <time>2020-02-02T10:16:07Z</time>
      </trkpt>
      <trkpt lat="43.57066" lon="6.31829">
        <ele>444.2</ele>
        <time>2020-02-02T10:16:18Z</time>
      </trkpt>
      <trkpt lat="43.57059" lon="6.31839">
        <ele>443.8</ele>
        <time>2020-02-02T10:16:29Z</time>
      </trkpt>
      <trkpt lat="43.57052" lon="6.31847">
        <ele>443.3</ele>
        <time>2020-02-02T10:16:38Z</time>
      </trkpt>
      <trkpt lat="43.57045" lon="6.31855">
        <ele>442.5</ele>
        <time>2020-02-02T10:16:52Z</time>
      </trkpt>
      <trkpt lat="43.57036" lon="6.31861">
        <ele>442</ele>
        <time>2020-02-02T10:17:03Z</time>
      </trkpt>
      <trkpt lat="43.57036" lon="6.31874">
        <ele>441.5</ele>
        <time>2020-02-02T10:17:11Z</time>
      </trkpt>
      <trkpt lat="43.57031" lon="6.31884">
        <ele>441.1</ele>
        <time>2020-02-02T10:17:21Z</time>
      </trkpt>
      <trkpt lat="43.57023" lon="6.31892">
        <ele>440</ele>
        <time>2020-02-02T10:17:33Z</time>
      </trkpt>
      <trkpt lat="43.57014" lon="6.31892">
        <ele>437.9</ele>
        <time>2020-02-02T10:17:49Z</time>
      </trkpt>
      <trkpt lat="43.57006" lon="6.31886">
        <ele>436.3</ele>
        <time>2020-02-02T10:18:02Z</time>
      </trkpt>
      <trkpt lat="43.56997" lon="6.31881">
        <ele>434.8</ele>
        <time>2020-02-02T10:18:14Z</time>
      </trkpt>
      <trkpt lat="43.56988" lon="6.31879">
        <ele>433.5</ele>
        <time>2020-02-02T10:18:23Z</time>
      </trkpt>
      <trkpt lat="43.56978" lon="6.31883">
        <ele>432.6</ele>
        <time>2020-02-02T10:18:33Z</time>
      </trkpt>
      <trkpt lat="43.56972" lon="6.31894">
        <ele>431.9</ele>
        <time>2020-02-02T10:18:41Z</time>
      </trkpt>
      <trkpt lat="43.56965" lon="6.31904">
        <ele>431.8</ele>
        <time>2020-02-02T10:18:51Z</time>
      </trkpt>
      <trkpt lat="43.56961" lon="6.31915">
        <ele>431.7</ele>
        <time>2020-02-02T10:18:59Z</time>
      </trkpt>
      <trkpt lat="43.56959" lon="6.31929">
        <ele>432</ele>
        <time>2020-02-02T10:19:08Z</time>
      </trkpt>
      <trkpt lat="43.56956" lon="6.31941">
        <ele>432.4</ele>
        <time>2020-02-02T10:19:17Z</time>
      </trkpt>
      <trkpt lat="43.56952" lon="6.31953">
        <ele>433.1</ele>
        <time>2020-02-02T10:19:28Z</time>
      </trkpt>
      <trkpt lat="43.56951" lon="6.31966">
        <ele>433.7</ele>
        <time>2020-02-02T10:19:37Z</time>
      </trkpt>
      <trkpt lat="43.56948" lon="6.31979">
        <ele>434.4</ele>
        <time>2020-02-02T10:19:48Z</time>
      </trkpt>
      <trkpt lat="43.56943" lon="6.31989">
        <ele>435.4</ele>
        <time>2020-02-02T10:20:02Z</time>
      </trkpt>
      <trkpt lat="43.56948" lon="6.31999">
        <ele>436.6</ele>
        <time>2020-02-02T10:20:17Z</time>
      </trkpt>
      <trkpt lat="43.56948" lon="6.32013">
        <ele>437.4</ele>
        <time>2020-02-02T10:20:32Z</time>
      </trkpt>
      <trkpt lat="43.56943" lon="6.32023">
        <ele>438</ele>
        <time>2020-02-02T10:20:44Z</time>
      </trkpt>
      <trkpt lat="43.5694" lon="6.32034">
        <ele>438.1</ele>
        <time>2020-02-02T10:20:59Z</time>
      </trkpt>
      <trkpt lat="43.56936" lon="6.32046">
        <ele>439.3</ele>
        <time>2020-02-02T10:21:12Z</time>
      </trkpt>
      <trkpt lat="43.56935" lon="6.32059">
        <ele>440.2</ele>
        <time>2020-02-02T10:21:26Z</time>
      </trkpt>
      <trkpt lat="43.56937" lon="6.32072">
        <ele>441.5</ele>
        <time>2020-02-02T10:21:38Z</time>
      </trkpt>
      <trkpt lat="43.56939" lon="6.32084">
        <ele>443.2</ele>
        <time>2020-02-02T10:21:52Z</time>
      </trkpt>
      <trkpt lat="43.56945" lon="6.32094">
        <ele>444</ele>
        <time>2020-02-02T10:22:04Z</time>
      </trkpt>
      <trkpt lat="43.56952" lon="6.32102">
        <ele>445.4</ele>
        <time>2020-02-02T10:22:18Z</time>
      </trkpt>
      <trkpt lat="43.56958" lon="6.32111">
        <ele>447</ele>
        <time>2020-02-02T10:22:30Z</time>
      </trkpt>
      <trkpt lat="43.56962" lon="6.32122">
        <ele>448.3</ele>
        <time>2020-02-02T10:22:44Z</time>
      </trkpt>
      <trkpt lat="43.56967" lon="6.32134">
        <ele>449.6</ele>
        <time>2020-02-02T10:22:53Z</time>
      </trkpt>
      <trkpt lat="43.56972" lon="6.32144">
        <ele>451.4</ele>
        <time>2020-02-02T10:23:05Z</time>
      </trkpt>
      <trkpt lat="43.5698" lon="6.32151">
        <ele>452.7</ele>
        <time>2020-02-02T10:23:22Z</time>
      </trkpt>
      <trkpt lat="43.56988" lon="6.32157">
        <ele>455.1</ele>
        <time>2020-02-02T10:23:46Z</time>
      </trkpt>
      <trkpt lat="43.56991" lon="6.3217">
        <ele>456.3</ele>
        <time>2020-02-02T10:26:00Z</time>
      </trkpt>
      <trkpt lat="43.56992" lon="6.32158">
        <ele>455.8</ele>
        <time>2020-02-02T10:28:49Z</time>
      </trkpt>
      <trkpt lat="43.56996" lon="6.32146">
        <ele>455.6</ele>
        <time>2020-02-02T10:29:03Z</time>
      </trkpt>
      <trkpt lat="43.57001" lon="6.32135">
        <ele>454.8</ele>
        <time>2020-02-02T10:29:12Z</time>
      </trkpt>
      <trkpt lat="43.57007" lon="6.32125">
        <ele>454.1</ele>
        <time>2020-02-02T10:29:22Z</time>
      </trkpt>
      <trkpt lat="43.57015" lon="6.32118">
        <ele>453.2</ele>
        <time>2020-02-02T10:29:32Z</time>
      </trkpt>
      <trkpt lat="43.57022" lon="6.32111">
        <ele>452.1</ele>
        <time>2020-02-02T10:29:41Z</time>
      </trkpt>
      <trkpt lat="43.5703" lon="6.32104">
        <ele>451.5</ele>
        <time>2020-02-02T10:29:50Z</time>
      </trkpt>
      <trkpt lat="43.57039" lon="6.32097">
        <ele>451.6</ele>
        <time>2020-02-02T10:30:00Z</time>
      </trkpt>
      <trkpt lat="43.57047" lon="6.32091">
        <ele>451.5</ele>
        <time>2020-02-02T10:30:08Z</time>
      </trkpt>
      <trkpt lat="43.57054" lon="6.32081">
        <ele>451.8</ele>
        <time>2020-02-02T10:30:17Z</time>
      </trkpt>
      <trkpt lat="43.57062" lon="6.32075">
        <ele>451.3</ele>
        <time>2020-02-02T10:30:26Z</time>
      </trkpt>
      <trkpt lat="43.57071" lon="6.32069">
        <ele>451.2</ele>
        <time>2020-02-02T10:30:35Z</time>
      </trkpt>
      <trkpt lat="43.57076" lon="6.32058">
        <ele>451</ele>
        <time>2020-02-02T10:30:44Z</time>
      </trkpt>
      <trkpt lat="43.57075" lon="6.32045">
        <ele>451.2</ele>
        <time>2020-02-02T10:30:53Z</time>
      </trkpt>
      <trkpt lat="43.57073" lon="6.32031">
        <ele>451.9</ele>
        <time>2020-02-02T10:31:01Z</time>
      </trkpt>
      <trkpt lat="43.5708" lon="6.32023">
        <ele>453.2</ele>
        <time>2020-02-02T10:31:20Z</time>
      </trkpt>
      <trkpt lat="43.57087" lon="6.32014">
        <ele>454.7</ele>
        <time>2020-02-02T10:31:33Z</time>
      </trkpt>
      <trkpt lat="43.57095" lon="6.32007">
        <ele>455.3</ele>
        <time>2020-02-02T10:31:42Z</time>
      </trkpt>
      <trkpt lat="43.57103" lon="6.32">
        <ele>455.8</ele>
        <time>2020-02-02T10:31:51Z</time>
      </trkpt>
      <trkpt lat="43.57112" lon="6.31996">
        <ele>455.9</ele>
        <time>2020-02-02T10:32:00Z</time>
      </trkpt>
      <trkpt lat="43.57121" lon="6.31989">
        <ele>455.9</ele>
        <time>2020-02-02T10:32:09Z</time>
      </trkpt>
      <trkpt lat="43.57129" lon="6.31982">
        <ele>456.1</ele>
        <time>2020-02-02T10:32:17Z</time>
      </trkpt>
      <trkpt lat="43.57137" lon="6.31977">
        <ele>456.1</ele>
        <time>2020-02-02T10:32:26Z</time>
      </trkpt>
      <trkpt lat="43.57146" lon="6.3197">
        <ele>455.6</ele>
        <time>2020-02-02T10:32:36Z</time>
      </trkpt>
      <trkpt lat="43.57152" lon="6.31961">
        <ele>454.9</ele>
        <time>2020-02-02T10:32:50Z</time>
      </trkpt>
      <trkpt lat="43.57161" lon="6.31959">
        <ele>454.8</ele>
        <time>2020-02-02T10:33:03Z</time>
      </trkpt>
      <trkpt lat="43.5717" lon="6.31959">
        <ele>454.7</ele>
        <time>2020-02-02T10:33:23Z</time>
      </trkpt>
      <trkpt lat="43.57179" lon="6.31957">
        <ele>454.9</ele>
        <time>2020-02-02T10:34:16Z</time>
      </trkpt>
      <trkpt lat="43.57188" lon="6.31952">
        <ele>454.7</ele>
        <time>2020-02-02T10:34:47Z</time>
      </trkpt>
      <trkpt lat="43.57189" lon="6.31964">
        <ele>456.2</ele>
        <time>2020-02-02T10:35:59Z</time>
      </trkpt>
      <trkpt lat="43.57195" lon="6.31974">
        <ele>460</ele>
        <time>2020-02-02T10:36:25Z</time>
      </trkpt>
      <trkpt lat="43.57204" lon="6.31977">
        <ele>460.9</ele>
        <time>2020-02-02T10:36:38Z</time>
      </trkpt>
      <trkpt lat="43.57213" lon="6.31979">
        <ele>462.4</ele>
        <time>2020-02-02T10:36:53Z</time>
      </trkpt>
      <trkpt lat="43.57222" lon="6.31983">
        <ele>463.9</ele>
        <time>2020-02-02T10:37:13Z</time>
      </trkpt>
      <trkpt lat="43.57231" lon="6.31985">
        <ele>464</ele>
        <time>2020-02-02T10:37:23Z</time>
      </trkpt>
      <trkpt lat="43.5724" lon="6.31988">
        <ele>465.1</ele>
        <time>2020-02-02T10:37:38Z</time>
      </trkpt>
      <trkpt lat="43.57249" lon="6.3199">
        <ele>464.8</ele>
        <time>2020-02-02T10:37:47Z</time>
      </trkpt>
      <trkpt lat="43.57256" lon="6.31983">
        <ele>465.3</ele>
        <time>2020-02-02T10:38:16Z</time>
      </trkpt>
      <trkpt lat="43.57266" lon="6.31982">
        <ele>466.3</ele>
        <time>2020-02-02T10:38:48Z</time>
      </trkpt>
      <trkpt lat="43.57275" lon="6.31976">
        <ele>466.7</ele>
        <time>2020-02-02T10:39:07Z</time>
      </trkpt>
      <trkpt lat="43.57266" lon="6.31974">
        <ele>467.5</ele>
        <time>2020-02-02T10:40:04Z</time>
      </trkpt>
      <trkpt lat="43.57272" lon="6.31964">
        <ele>467.7</ele>
        <time>2020-02-02T10:40:25Z</time>
      </trkpt>
      <trkpt lat="43.5728" lon="6.31958">
        <ele>469.8</ele>
        <time>2020-02-02T10:41:03Z</time>
      </trkpt>
      <trkpt lat="43.57285" lon="6.31947">
        <ele>471.1</ele>
        <time>2020-02-02T10:41:15Z</time>
      </trkpt>
      <trkpt lat="43.57289" lon="6.31935">
        <ele>472.7</ele>
        <time>2020-02-02T10:41:29Z</time>
      </trkpt>
      <trkpt lat="43.57292" lon="6.31923">
        <ele>474.7</ele>
        <time>2020-02-02T10:41:45Z</time>
      </trkpt>
      <trkpt lat="43.57295" lon="6.3191">
        <ele>476.2</ele>
        <time>2020-02-02T10:41:59Z</time>
      </trkpt>
      <trkpt lat="43.573" lon="6.31899">
        <ele>477.7</ele>
        <time>2020-02-02T10:42:14Z</time>
      </trkpt>
      <trkpt lat="43.57297" lon="6.31887">
        <ele>479.4</ele>
        <time>2020-02-02T10:42:59Z</time>
      </trkpt>
      <trkpt lat="43.57289" lon="6.31891">
        <ele>479.6</ele>
        <time>2020-02-02T10:43:12Z</time>
      </trkpt>
      <trkpt lat="43.57282" lon="6.31899">
        <ele>479</ele>
        <time>2020-02-02T10:43:48Z</time>
      </trkpt>
      <trkpt lat="43.57291" lon="6.31896">
        <ele>479.7</ele>
        <time>2020-02-02T10:44:06Z</time>
      </trkpt>
      <trkpt lat="43.57299" lon="6.3189">
        <ele>479.6</ele>
        <time>2020-02-02T10:44:13Z</time>
      </trkpt>
      <trkpt lat="43.57306" lon="6.31879">
        <ele>479.6</ele>
        <time>2020-02-02T10:44:25Z</time>
      </trkpt>
      <trkpt lat="43.57305" lon="6.31866">
        <ele>479.8</ele>
        <time>2020-02-02T10:44:36Z</time>
      </trkpt>
      <trkpt lat="43.5731" lon="6.31854">
        <ele>480</ele>
        <time>2020-02-02T10:44:45Z</time>
      </trkpt>
      <trkpt lat="43.57317" lon="6.31845">
        <ele>481.2</ele>
        <time>2020-02-02T10:45:19Z</time>
      </trkpt>
      <trkpt lat="43.57319" lon="6.31833">
        <ele>480.5</ele>
        <time>2020-02-02T10:45:31Z</time>
      </trkpt>
      <trkpt lat="43.57322" lon="6.31821">
        <ele>479.4</ele>
        <time>2020-02-02T10:45:42Z</time>
      </trkpt>
      <trkpt lat="43.57323" lon="6.31808">
        <ele>478.9</ele>
        <time>2020-02-02T10:46:12Z</time>
      </trkpt>
      <trkpt lat="43.57332" lon="6.31804">
        <ele>478.9</ele>
        <time>2020-02-02T10:46:22Z</time>
      </trkpt>
      <trkpt lat="43.57341" lon="6.31802">
        <ele>478.9</ele>
        <time>2020-02-02T10:46:35Z</time>
      </trkpt>
      <trkpt lat="43.57345" lon="6.3179">
        <ele>477.4</ele>
        <time>2020-02-02T10:47:16Z</time>
      </trkpt>
      <trkpt lat="43.57351" lon="6.31779">
        <ele>476.5</ele>
        <time>2020-02-02T10:47:27Z</time>
      </trkpt>
      <trkpt lat="43.57348" lon="6.31767">
        <ele>474.6</ele>
        <time>2020-02-02T10:49:30Z</time>
      </trkpt>
      <trkpt lat="43.57341" lon="6.31775">
        <ele>474.7</ele>
        <time>2020-02-02T10:50:02Z</time>
      </trkpt>
      <trkpt lat="43.57343" lon="6.31787">
        <ele>475.8</ele>
        <time>2020-02-02T10:50:16Z</time>
      </trkpt>
      <trkpt lat="43.57348" lon="6.31797">
        <ele>476.3</ele>
        <time>2020-02-02T10:50:27Z</time>
      </trkpt>
      <trkpt lat="43.57357" lon="6.31802">
        <ele>477.1</ele>
        <time>2020-02-02T10:50:38Z</time>
      </trkpt>
      <trkpt lat="43.57366" lon="6.31801">
        <ele>477.8</ele>
        <time>2020-02-02T10:50:48Z</time>
      </trkpt>
      <trkpt lat="43.57375" lon="6.31796">
        <ele>478.1</ele>
        <time>2020-02-02T10:50:58Z</time>
      </trkpt>
      <trkpt lat="43.57383" lon="6.31789">
        <ele>478.7</ele>
        <time>2020-02-02T10:51:07Z</time>
      </trkpt>
      <trkpt lat="43.57391" lon="6.31783">
        <ele>478.6</ele>
        <time>2020-02-02T10:51:14Z</time>
      </trkpt>
      <trkpt lat="43.57398" lon="6.31774">
        <ele>478.8</ele>
        <time>2020-02-02T10:51:24Z</time>
      </trkpt>
      <trkpt lat="43.57404" lon="6.31764">
        <ele>479.2</ele>
        <time>2020-02-02T10:51:34Z</time>
      </trkpt>
      <trkpt lat="43.57411" lon="6.31754">
        <ele>479.9</ele>
        <time>2020-02-02T10:51:44Z</time>
      </trkpt>
      <trkpt lat="43.57419" lon="6.31748">
        <ele>480</ele>
        <time>2020-02-02T10:51:53Z</time>
      </trkpt>
      <trkpt lat="43.57425" lon="6.31738">
        <ele>480.3</ele>
        <time>2020-02-02T10:52:04Z</time>
      </trkpt>
      <trkpt lat="43.57432" lon="6.31728">
        <ele>480.5</ele>
        <time>2020-02-02T10:52:14Z</time>
      </trkpt>
      <trkpt lat="43.5744" lon="6.31722">
        <ele>480.7</ele>
        <time>2020-02-02T10:52:24Z</time>
      </trkpt>
      <trkpt lat="43.57447" lon="6.31714">
        <ele>480.7</ele>
        <time>2020-02-02T10:52:35Z</time>
      </trkpt>
      <trkpt lat="43.57455" lon="6.31706">
        <ele>480.5</ele>
        <time>2020-02-02T10:52:46Z</time>
      </trkpt>
      <trkpt lat="43.57464" lon="6.31699">
        <ele>480.2</ele>
        <time>2020-02-02T10:52:56Z</time>
      </trkpt>
      <trkpt lat="43.57472" lon="6.31692">
        <ele>479.8</ele>
        <time>2020-02-02T10:53:08Z</time>
      </trkpt>
      <trkpt lat="43.5748" lon="6.31686">
        <ele>479.5</ele>
        <time>2020-02-02T10:53:20Z</time>
      </trkpt>
      <trkpt lat="43.57486" lon="6.31676">
        <ele>480</ele>
        <time>2020-02-02T10:53:46Z</time>
      </trkpt>
      <trkpt lat="43.57492" lon="6.31665">
        <ele>480.3</ele>
        <time>2020-02-02T10:53:57Z</time>
      </trkpt>
      <trkpt lat="43.57498" lon="6.31656">
        <ele>480.3</ele>
        <time>2020-02-02T10:54:05Z</time>
      </trkpt>
      <trkpt lat="43.57506" lon="6.31648">
        <ele>480.9</ele>
        <time>2020-02-02T10:54:16Z</time>
      </trkpt>
      <trkpt lat="43.57512" lon="6.31638">
        <ele>482.9</ele>
        <time>2020-02-02T10:54:50Z</time>
      </trkpt>
      <trkpt lat="43.57521" lon="6.31632">
        <ele>482.9</ele>
        <time>2020-02-02T10:55:00Z</time>
      </trkpt>
      <trkpt lat="43.57529" lon="6.31627">
        <ele>482.6</ele>
        <time>2020-02-02T10:55:13Z</time>
      </trkpt>
      <trkpt lat="43.57538" lon="6.31623">
        <ele>482.7</ele>
        <time>2020-02-02T10:55:23Z</time>
      </trkpt>
      <trkpt lat="43.57547" lon="6.31617">
        <ele>483</ele>
        <time>2020-02-02T10:55:35Z</time>
      </trkpt>
      <trkpt lat="43.57554" lon="6.31608">
        <ele>483.2</ele>
        <time>2020-02-02T10:55:46Z</time>
      </trkpt>
      <trkpt lat="43.57558" lon="6.31595">
        <ele>483.4</ele>
        <time>2020-02-02T10:56:56Z</time>
      </trkpt>
      <trkpt lat="43.57554" lon="6.31582">
        <ele>483.2</ele>
        <time>2020-02-02T10:57:11Z</time>
      </trkpt>
      <trkpt lat="43.57554" lon="6.3157">
        <ele>482.3</ele>
        <time>2020-02-02T10:57:21Z</time>
      </trkpt>
      <trkpt lat="43.57554" lon="6.31553">
        <ele>481</ele>
        <time>2020-02-02T10:57:35Z</time>
      </trkpt>
      <trkpt lat="43.57552" lon="6.3154">
        <ele>480.9</ele>
        <time>2020-02-02T10:57:43Z</time>
      </trkpt>
      <trkpt lat="43.57548" lon="6.31528">
        <ele>481</ele>
        <time>2020-02-02T10:57:51Z</time>
      </trkpt>
      <trkpt lat="43.57544" lon="6.31516">
        <ele>481</ele>
        <time>2020-02-02T10:57:59Z</time>
      </trkpt>
      <trkpt lat="43.57541" lon="6.31504">
        <ele>481.1</ele>
        <time>2020-02-02T10:58:08Z</time>
      </trkpt>
      <trkpt lat="43.57535" lon="6.31495">
        <ele>481</ele>
        <time>2020-02-02T10:58:17Z</time>
      </trkpt>
      <trkpt lat="43.57528" lon="6.31485">
        <ele>480.5</ele>
        <time>2020-02-02T10:58:26Z</time>
      </trkpt>
      <trkpt lat="43.57521" lon="6.31477">
        <ele>479.5</ele>
        <time>2020-02-02T10:58:34Z</time>
      </trkpt>
      <trkpt lat="43.57513" lon="6.31472">
        <ele>478.8</ele>
        <time>2020-02-02T10:58:44Z</time>
      </trkpt>
      <trkpt lat="43.57504" lon="6.31467">
        <ele>478.3</ele>
        <time>2020-02-02T10:58:53Z</time>
      </trkpt>
      <trkpt lat="43.57498" lon="6.31458">
        <ele>477.7</ele>
        <time>2020-02-02T10:59:02Z</time>
      </trkpt>
      <trkpt lat="43.57494" lon="6.31446">
        <ele>477.2</ele>
        <time>2020-02-02T10:59:11Z</time>
      </trkpt>
      <trkpt lat="43.57491" lon="6.31434">
        <ele>476.6</ele>
        <time>2020-02-02T10:59:22Z</time>
      </trkpt>
      <trkpt lat="43.57496" lon="6.31423">
        <ele>476.4</ele>
        <time>2020-02-02T10:59:31Z</time>
      </trkpt>
      <trkpt lat="43.57505" lon="6.31415">
        <ele>476.2</ele>
        <time>2020-02-02T10:59:38Z</time>
      </trkpt>
      <trkpt lat="43.57513" lon="6.31409">
        <ele>476.1</ele>
        <time>2020-02-02T10:59:44Z</time>
      </trkpt>
      <trkpt lat="43.57521" lon="6.31402">
        <ele>476</ele>
        <time>2020-02-02T10:59:51Z</time>
      </trkpt>
      <trkpt lat="43.57525" lon="6.31391">
        <ele>476.4</ele>
        <time>2020-02-02T11:00:06Z</time>
      </trkpt>
      <trkpt lat="43.57534" lon="6.31385">
        <ele>476.9</ele>
        <time>2020-02-02T11:00:15Z</time>
      </trkpt>
      <trkpt lat="43.57541" lon="6.31379">
        <ele>477.7</ele>
        <time>2020-02-02T11:00:29Z</time>
      </trkpt>
      <trkpt lat="43.5755" lon="6.31375">
        <ele>478.7</ele>
        <time>2020-02-02T11:00:44Z</time>
      </trkpt>
      <trkpt lat="43.57558" lon="6.31369">
        <ele>481.4</ele>
        <time>2020-02-02T11:01:35Z</time>
      </trkpt>
      <trkpt lat="43.57561" lon="6.31357">
        <ele>481.8</ele>
        <time>2020-02-02T11:02:43Z</time>
      </trkpt>
      <trkpt lat="43.57553" lon="6.31351">
        <ele>482.9</ele>
        <time>2020-02-02T11:02:57Z</time>
      </trkpt>
      <trkpt lat="43.57545" lon="6.31346">
        <ele>483.3</ele>
        <time>2020-02-02T11:03:08Z</time>
      </trkpt>
      <trkpt lat="43.57536" lon="6.3134">
        <ele>483.9</ele>
        <time>2020-02-02T11:03:23Z</time>
      </trkpt>
      <trkpt lat="43.57529" lon="6.3133">
        <ele>483.9</ele>
        <time>2020-02-02T11:03:35Z</time>
      </trkpt>
      <trkpt lat="43.57523" lon="6.3132">
        <ele>483.3</ele>
        <time>2020-02-02T11:03:49Z</time>
      </trkpt>
      <trkpt lat="43.57516" lon="6.31312">
        <ele>482.2</ele>
        <time>2020-02-02T11:04:01Z</time>
      </trkpt>
      <trkpt lat="43.57508" lon="6.31304">
        <ele>481.4</ele>
        <time>2020-02-02T11:04:12Z</time>
      </trkpt>
      <trkpt lat="43.57501" lon="6.31296">
        <ele>480</ele>
        <time>2020-02-02T11:04:31Z</time>
      </trkpt>
      <trkpt lat="43.57495" lon="6.31286">
        <ele>479.1</ele>
        <time>2020-02-02T11:05:02Z</time>
      </trkpt>
      <trkpt lat="43.57488" lon="6.31277">
        <ele>479</ele>
        <time>2020-02-02T11:05:35Z</time>
      </trkpt>
      <trkpt lat="43.5748" lon="6.31272">
        <ele>479.4</ele>
        <time>2020-02-02T11:05:47Z</time>
      </trkpt>
      <trkpt lat="43.57472" lon="6.31264">
        <ele>477.4</ele>
        <time>2020-02-02T11:06:04Z</time>
      </trkpt>
      <trkpt lat="43.57466" lon="6.31255">
        <ele>476.5</ele>
        <time>2020-02-02T11:06:16Z</time>
      </trkpt>
      <trkpt lat="43.57459" lon="6.31245">
        <ele>475</ele>
        <time>2020-02-02T11:06:27Z</time>
      </trkpt>
      <trkpt lat="43.57453" lon="6.31237">
        <ele>473.5</ele>
        <time>2020-02-02T11:06:41Z</time>
      </trkpt>
      <trkpt lat="43.57446" lon="6.31229">
        <ele>471.6</ele>
        <time>2020-02-02T11:06:55Z</time>
      </trkpt>
      <trkpt lat="43.57449" lon="6.31218">
        <ele>470.3</ele>
        <time>2020-02-02T11:07:30Z</time>
      </trkpt>
      <trkpt lat="43.57448" lon="6.31202">
        <ele>468</ele>
        <time>2020-02-02T11:08:42Z</time>
      </trkpt>
      <trkpt lat="43.57454" lon="6.31216">
        <ele>468</ele>
        <time>2020-02-02T11:09:14Z</time>
      </trkpt>
      <trkpt lat="43.57448" lon="6.31206">
        <ele>469.8</ele>
        <time>2020-02-02T11:12:34Z</time>
      </trkpt>
      <trkpt lat="43.57444" lon="6.31195">
        <ele>469.9</ele>
        <time>2020-02-02T11:12:58Z</time>
      </trkpt>
      <trkpt lat="43.5744" lon="6.31206">
        <ele>470.3</ele>
        <time>2020-02-02T11:13:21Z</time>
      </trkpt>
      <trkpt lat="43.57444" lon="6.31218">
        <ele>470.2</ele>
        <time>2020-02-02T11:14:16Z</time>
      </trkpt>
      <trkpt lat="43.57445" lon="6.31204">
        <ele>470.1</ele>
        <time>2020-02-02T11:14:50Z</time>
      </trkpt>
      <trkpt lat="43.57448" lon="6.31191">
        <ele>468.5</ele>
        <time>2020-02-02T11:15:20Z</time>
      </trkpt>
      <trkpt lat="43.57448" lon="6.31203">
        <ele>466</ele>
        <time>2020-02-02T11:15:58Z</time>
      </trkpt>
      <trkpt lat="43.57452" lon="6.31215">
        <ele>467.7</ele>
        <time>2020-02-02T11:16:20Z</time>
      </trkpt>
      <trkpt lat="43.57442" lon="6.31215">
        <ele>467.8</ele>
        <time>2020-02-02T11:16:39Z</time>
      </trkpt>
      <trkpt lat="43.57449" lon="6.31223">
        <ele>467.9</ele>
        <time>2020-02-02T11:17:26Z</time>
      </trkpt>
      <trkpt lat="43.57454" lon="6.31212">
        <ele>469.2</ele>
        <time>2020-02-02T11:19:07Z</time>
      </trkpt>
      <trkpt lat="43.57445" lon="6.31217">
        <ele>469.6</ele>
        <time>2020-02-02T11:19:52Z</time>
      </trkpt>
      <trkpt lat="43.57454" lon="6.31215">
        <ele>470.6</ele>
        <time>2020-02-02T11:24:48Z</time>
      </trkpt>
      <trkpt lat="43.57445" lon="6.31216">
        <ele>469.5</ele>
        <time>2020-02-02T11:25:44Z</time>
      </trkpt>
      <trkpt lat="43.57441" lon="6.31228">
        <ele>470</ele>
        <time>2020-02-02T11:31:17Z</time>
      </trkpt>
      <trkpt lat="43.57448" lon="6.3122">
        <ele>470.1</ele>
        <time>2020-02-02T11:31:42Z</time>
      </trkpt>
      <trkpt lat="43.57447" lon="6.31206">
        <ele>469.2</ele>
        <time>2020-02-02T11:35:15Z</time>
      </trkpt>
      <trkpt lat="43.57448" lon="6.31219">
        <ele>470.8</ele>
        <time>2020-02-02T11:36:59Z</time>
      </trkpt>
      <trkpt lat="43.57457" lon="6.31213">
        <ele>469.8</ele>
        <time>2020-02-02T11:45:06Z</time>
      </trkpt>
      <trkpt lat="43.57448" lon="6.31218">
        <ele>469.7</ele>
        <time>2020-02-02T11:45:56Z</time>
      </trkpt>
      <trkpt lat="43.57443" lon="6.31206">
        <ele>469</ele>
        <time>2020-02-02T11:46:53Z</time>
      </trkpt>
      <trkpt lat="43.57443" lon="6.3119">
        <ele>469</ele>
        <time>2020-02-02T11:47:21Z</time>
      </trkpt>
      <trkpt lat="43.5745" lon="6.3121">
        <ele>469</ele>
        <time>2020-02-02T11:48:27Z</time>
      </trkpt>
      <trkpt lat="43.57447" lon="6.3118">
        <ele>469</ele>
        <time>2020-02-02T11:49:21Z</time>
      </trkpt>
      <trkpt lat="43.5745" lon="6.3121">
        <ele>469</ele>
        <time>2020-02-02T11:51:10Z</time>
      </trkpt>
      <trkpt lat="43.57456" lon="6.31219">
        <ele>469</ele>
        <time>2020-02-02T11:51:30Z</time>
      </trkpt>
      <trkpt lat="43.57452" lon="6.3119">
        <ele>469</ele>
        <time>2020-02-02T11:51:38Z</time>
      </trkpt>
      <trkpt lat="43.57451" lon="6.31221">
        <ele>469.4</ele>
        <time>2020-02-02T11:52:24Z</time>
      </trkpt>
      <trkpt lat="43.57443" lon="6.31215">
        <ele>469.6</ele>
        <time>2020-02-02T11:52:28Z</time>
      </trkpt>
      <trkpt lat="43.5744" lon="6.31197">
        <ele>469</ele>
        <time>2020-02-02T11:52:41Z</time>
      </trkpt>
      <trkpt lat="43.57446" lon="6.31215">
        <ele>469</ele>
        <time>2020-02-02T11:52:57Z</time>
      </trkpt>
      <trkpt lat="43.57442" lon="6.31229">
        <ele>470</ele>
        <time>2020-02-02T11:54:22Z</time>
      </trkpt>
      <trkpt lat="43.57446" lon="6.31204">
        <ele>470</ele>
        <time>2020-02-02T11:54:54Z</time>
      </trkpt>
      <trkpt lat="43.57439" lon="6.31195">
        <ele>470.6</ele>
        <time>2020-02-02T11:56:35Z</time>
      </trkpt>
      <trkpt lat="43.57448" lon="6.31207">
        <ele>470</ele>
        <time>2020-02-02T11:56:56Z</time>
      </trkpt>
      <trkpt lat="43.57457" lon="6.3121">
        <ele>470.9</ele>
        <time>2020-02-02T11:57:49Z</time>
      </trkpt>
      <trkpt lat="43.57449" lon="6.31205">
        <ele>470.7</ele>
        <time>2020-02-02T11:58:08Z</time>
      </trkpt>
      <trkpt lat="43.57439" lon="6.31204">
        <ele>470.6</ele>
        <time>2020-02-02T11:58:49Z</time>
      </trkpt>
      <trkpt lat="43.5743" lon="6.31206">
        <ele>470.6</ele>
        <time>2020-02-02T11:59:48Z</time>
      </trkpt>
      <trkpt lat="43.57421" lon="6.31202">
        <ele>470.4</ele>
        <time>2020-02-02T12:00:07Z</time>
      </trkpt>
      <trkpt lat="43.57412" lon="6.312">
        <ele>470.1</ele>
        <time>2020-02-02T12:00:21Z</time>
      </trkpt>
      <trkpt lat="43.57418" lon="6.31189">
        <ele>469.8</ele>
        <time>2020-02-02T12:00:57Z</time>
      </trkpt>
      <trkpt lat="43.57425" lon="6.3118">
        <ele>469.5</ele>
        <time>2020-02-02T12:01:08Z</time>
      </trkpt>
      <trkpt lat="43.57429" lon="6.31166">
        <ele>470</ele>
        <time>2020-02-02T12:01:27Z</time>
      </trkpt>
      <trkpt lat="43.57435" lon="6.31155">
        <ele>470.2</ele>
        <time>2020-02-02T12:01:33Z</time>
      </trkpt>
      <trkpt lat="43.57442" lon="6.31144">
        <ele>470.1</ele>
        <time>2020-02-02T12:01:45Z</time>
      </trkpt>
      <trkpt lat="43.57447" lon="6.31134">
        <ele>469.7</ele>
        <time>2020-02-02T12:01:52Z</time>
      </trkpt>
      <trkpt lat="43.57451" lon="6.31122">
        <ele>469.4</ele>
        <time>2020-02-02T12:02:01Z</time>
      </trkpt>
      <trkpt lat="43.57452" lon="6.31109">
        <ele>469.4</ele>
        <time>2020-02-02T12:02:09Z</time>
      </trkpt>
      <trkpt lat="43.57449" lon="6.31096">
        <ele>469.5</ele>
        <time>2020-02-02T12:02:18Z</time>
      </trkpt>
      <trkpt lat="43.5744" lon="6.31093">
        <ele>470.7</ele>
        <time>2020-02-02T12:02:31Z</time>
      </trkpt>
      <trkpt lat="43.57431" lon="6.3109">
        <ele>471.7</ele>
        <time>2020-02-02T12:02:43Z</time>
      </trkpt>
      <trkpt lat="43.57421" lon="6.31088">
        <ele>472.6</ele>
        <time>2020-02-02T12:03:04Z</time>
      </trkpt>
      <trkpt lat="43.57415" lon="6.311">
        <ele>472.6</ele>
        <time>2020-02-02T12:04:00Z</time>
      </trkpt>
      <trkpt lat="43.57425" lon="6.31104">
        <ele>472.2</ele>
        <time>2020-02-02T12:04:32Z</time>
      </trkpt>
      <trkpt lat="43.57434" lon="6.31102">
        <ele>470.5</ele>
        <time>2020-02-02T12:04:46Z</time>
      </trkpt>
      <trkpt lat="43.57443" lon="6.31098">
        <ele>469.6</ele>
        <time>2020-02-02T12:04:55Z</time>
      </trkpt>
      <trkpt lat="43.57451" lon="6.3109">
        <ele>468.3</ele>
        <time>2020-02-02T12:05:06Z</time>
      </trkpt>
      <trkpt lat="43.5746" lon="6.31084">
        <ele>467.5</ele>
        <time>2020-02-02T12:05:14Z</time>
      </trkpt>
      <trkpt lat="43.57468" lon="6.31078">
        <ele>467</ele>
        <time>2020-02-02T12:05:24Z</time>
      </trkpt>
      <trkpt lat="43.57476" lon="6.31071">
        <ele>465.9</ele>
        <time>2020-02-02T12:05:33Z</time>
      </trkpt>
      <trkpt lat="43.57483" lon="6.31064">
        <ele>465.4</ele>
        <time>2020-02-02T12:05:41Z</time>
      </trkpt>
      <trkpt lat="43.57491" lon="6.31059">
        <ele>464.8</ele>
        <time>2020-02-02T12:05:48Z</time>
      </trkpt>
      <trkpt lat="43.57495" lon="6.31046">
        <ele>463.8</ele>
        <time>2020-02-02T12:05:57Z</time>
      </trkpt>
      <trkpt lat="43.57495" lon="6.31033">
        <ele>463</ele>
        <time>2020-02-02T12:06:07Z</time>
      </trkpt>
      <trkpt lat="43.57492" lon="6.3102">
        <ele>461.8</ele>
        <time>2020-02-02T12:06:16Z</time>
      </trkpt>
      <trkpt lat="43.57492" lon="6.31006">
        <ele>461.2</ele>
        <time>2020-02-02T12:06:25Z</time>
      </trkpt>
      <trkpt lat="43.57495" lon="6.30994">
        <ele>460.4</ele>
        <time>2020-02-02T12:06:35Z</time>
      </trkpt>
      <trkpt lat="43.575" lon="6.30983">
        <ele>459.3</ele>
        <time>2020-02-02T12:06:47Z</time>
      </trkpt>
      <trkpt lat="43.57505" lon="6.30973">
        <ele>458.6</ele>
        <time>2020-02-02T12:06:55Z</time>
      </trkpt>
      <trkpt lat="43.57511" lon="6.30962">
        <ele>458.1</ele>
        <time>2020-02-02T12:07:04Z</time>
      </trkpt>
      <trkpt lat="43.57514" lon="6.3095">
        <ele>457.2</ele>
        <time>2020-02-02T12:07:13Z</time>
      </trkpt>
      <trkpt lat="43.57517" lon="6.30937">
        <ele>456.1</ele>
        <time>2020-02-02T12:07:22Z</time>
      </trkpt>
      <trkpt lat="43.57522" lon="6.30925">
        <ele>455</ele>
        <time>2020-02-02T12:07:30Z</time>
      </trkpt>
      <trkpt lat="43.57526" lon="6.30913">
        <ele>454.3</ele>
        <time>2020-02-02T12:07:36Z</time>
      </trkpt>
      <trkpt lat="43.57526" lon="6.309">
        <ele>453.6</ele>
        <time>2020-02-02T12:07:44Z</time>
      </trkpt>
      <trkpt lat="43.57518" lon="6.30894">
        <ele>451.6</ele>
        <time>2020-02-02T12:08:14Z</time>
      </trkpt>
      <trkpt lat="43.57519" lon="6.30881">
        <ele>451.5</ele>
        <time>2020-02-02T12:08:24Z</time>
      </trkpt>
      <trkpt lat="43.57513" lon="6.30871">
        <ele>451.1</ele>
        <time>2020-02-02T12:08:32Z</time>
      </trkpt>
      <trkpt lat="43.57507" lon="6.3086">
        <ele>450.1</ele>
        <time>2020-02-02T12:08:40Z</time>
      </trkpt>
      <trkpt lat="43.575" lon="6.30851">
        <ele>449.3</ele>
        <time>2020-02-02T12:08:47Z</time>
      </trkpt>
      <trkpt lat="43.57493" lon="6.30844">
        <ele>449.2</ele>
        <time>2020-02-02T12:08:53Z</time>
      </trkpt>
      <trkpt lat="43.57484" lon="6.3084">
        <ele>448.8</ele>
        <time>2020-02-02T12:08:59Z</time>
      </trkpt>
      <trkpt lat="43.57476" lon="6.30834">
        <ele>448.5</ele>
        <time>2020-02-02T12:09:04Z</time>
      </trkpt>
      <trkpt lat="43.57468" lon="6.30827">
        <ele>448.5</ele>
        <time>2020-02-02T12:09:10Z</time>
      </trkpt>
      <trkpt lat="43.57461" lon="6.30818">
        <ele>448.5</ele>
        <time>2020-02-02T12:09:23Z</time>
      </trkpt>
      <trkpt lat="43.57456" lon="6.30807">
        <ele>449.2</ele>
        <time>2020-02-02T12:09:33Z</time>
      </trkpt>
      <trkpt lat="43.5745" lon="6.30796">
        <ele>450.1</ele>
        <time>2020-02-02T12:09:43Z</time>
      </trkpt>
      <trkpt lat="43.57438" lon="6.30791">
        <ele>450.4</ele>
        <time>2020-02-02T12:09:48Z</time>
      </trkpt>
      <trkpt lat="43.57432" lon="6.3078">
        <ele>450.6</ele>
        <time>2020-02-02T12:10:01Z</time>
      </trkpt>
      <trkpt lat="43.57426" lon="6.30771">
        <ele>450.7</ele>
        <time>2020-02-02T12:10:08Z</time>
      </trkpt>
      <trkpt lat="43.57422" lon="6.30759">
        <ele>451</ele>
        <time>2020-02-02T12:10:15Z</time>
      </trkpt>
      <trkpt lat="43.57417" lon="6.30749">
        <ele>451.5</ele>
        <time>2020-02-02T12:10:21Z</time>
      </trkpt>
      <trkpt lat="43.5741" lon="6.3074">
        <ele>451.6</ele>
        <time>2020-02-02T12:10:29Z</time>
      </trkpt>
      <trkpt lat="43.57403" lon="6.3073">
        <ele>452</ele>
        <time>2020-02-02T12:10:34Z</time>
      </trkpt>
      <trkpt lat="43.57401" lon="6.30717">
        <ele>452.3</ele>
        <time>2020-02-02T12:10:43Z</time>
      </trkpt>
      <trkpt lat="43.57397" lon="6.30706">
        <ele>452.7</ele>
        <time>2020-02-02T12:10:49Z</time>
      </trkpt>
      <trkpt lat="43.57392" lon="6.30694">
        <ele>452.8</ele>
        <time>2020-02-02T12:10:58Z</time>
      </trkpt>
      <trkpt lat="43.57389" lon="6.30683">
        <ele>453.1</ele>
        <time>2020-02-02T12:11:07Z</time>
      </trkpt>
      <trkpt lat="43.57386" lon="6.3067">
        <ele>453.3</ele>
        <time>2020-02-02T12:11:15Z</time>
      </trkpt>
      <trkpt lat="43.57385" lon="6.30656">
        <ele>453</ele>
        <time>2020-02-02T12:11:23Z</time>
      </trkpt>
      <trkpt lat="43.57376" lon="6.3066">
        <ele>452.1</ele>
        <time>2020-02-02T12:11:44Z</time>
      </trkpt>
      <trkpt lat="43.5737" lon="6.30651">
        <ele>451.8</ele>
        <time>2020-02-02T12:12:13Z</time>
      </trkpt>
      <trkpt lat="43.57362" lon="6.30642">
        <ele>451.8</ele>
        <time>2020-02-02T12:12:20Z</time>
      </trkpt>
      <trkpt lat="43.57354" lon="6.30635">
        <ele>451.7</ele>
        <time>2020-02-02T12:12:27Z</time>
      </trkpt>
      <trkpt lat="43.57344" lon="6.30631">
        <ele>451.5</ele>
        <time>2020-02-02T12:12:34Z</time>
      </trkpt>
      <trkpt lat="43.57335" lon="6.30627">
        <ele>451.2</ele>
        <time>2020-02-02T12:12:41Z</time>
      </trkpt>
      <trkpt lat="43.57326" lon="6.30631">
        <ele>451.1</ele>
        <time>2020-02-02T12:12:51Z</time>
      </trkpt>
      <trkpt lat="43.57316" lon="6.30635">
        <ele>451.4</ele>
        <time>2020-02-02T12:13:04Z</time>
      </trkpt>
      <trkpt lat="43.57307" lon="6.3064">
        <ele>451.3</ele>
        <time>2020-02-02T12:13:14Z</time>
      </trkpt>
      <trkpt lat="43.57297" lon="6.30642">
        <ele>451.5</ele>
        <time>2020-02-02T12:13:20Z</time>
      </trkpt>
      <trkpt lat="43.57289" lon="6.30649">
        <ele>450.9</ele>
        <time>2020-02-02T12:13:29Z</time>
      </trkpt>
      <trkpt lat="43.5728" lon="6.30655">
        <ele>450.3</ele>
        <time>2020-02-02T12:13:36Z</time>
      </trkpt>
      <trkpt lat="43.57271" lon="6.30658">
        <ele>449.9</ele>
        <time>2020-02-02T12:13:43Z</time>
      </trkpt>
      <trkpt lat="43.57262" lon="6.30656">
        <ele>449.8</ele>
        <time>2020-02-02T12:13:50Z</time>
      </trkpt>
      <trkpt lat="43.57252" lon="6.30653">
        <ele>450</ele>
        <time>2020-02-02T12:14:01Z</time>
      </trkpt>
      <trkpt lat="43.57244" lon="6.30649">
        <ele>450</ele>
        <time>2020-02-02T12:14:11Z</time>
      </trkpt>
      <trkpt lat="43.57235" lon="6.30643">
        <ele>449.8</ele>
        <time>2020-02-02T12:14:17Z</time>
      </trkpt>
      <trkpt lat="43.57225" lon="6.30639">
        <ele>449.3</ele>
        <time>2020-02-02T12:14:25Z</time>
      </trkpt>
      <trkpt lat="43.57217" lon="6.30631">
        <ele>448.5</ele>
        <time>2020-02-02T12:14:38Z</time>
      </trkpt>
      <trkpt lat="43.57208" lon="6.30624">
        <ele>448.1</ele>
        <time>2020-02-02T12:14:45Z</time>
      </trkpt>
      <trkpt lat="43.572" lon="6.30618">
        <ele>448</ele>
        <time>2020-02-02T12:14:51Z</time>
      </trkpt>
      <trkpt lat="43.57192" lon="6.30612">
        <ele>448.1</ele>
        <time>2020-02-02T12:14:58Z</time>
      </trkpt>
      <trkpt lat="43.57185" lon="6.30604">
        <ele>448.3</ele>
        <time>2020-02-02T12:15:06Z</time>
      </trkpt>
      <trkpt lat="43.57177" lon="6.30597">
        <ele>448.5</ele>
        <time>2020-02-02T12:15:11Z</time>
      </trkpt>
      <trkpt lat="43.57168" lon="6.3059">
        <ele>448.4</ele>
        <time>2020-02-02T12:15:21Z</time>
      </trkpt>
      <trkpt lat="43.5716" lon="6.30584">
        <ele>448.7</ele>
        <time>2020-02-02T12:15:27Z</time>
      </trkpt>
      <trkpt lat="43.57151" lon="6.30577">
        <ele>449.3</ele>
        <time>2020-02-02T12:15:36Z</time>
      </trkpt>
      <trkpt lat="43.57144" lon="6.3057">
        <ele>449.1</ele>
        <time>2020-02-02T12:15:44Z</time>
      </trkpt>
      <trkpt lat="43.57136" lon="6.30562">
        <ele>448.4</ele>
        <time>2020-02-02T12:15:52Z</time>
      </trkpt>
      <trkpt lat="43.57128" lon="6.30555">
        <ele>448.2</ele>
        <time>2020-02-02T12:15:57Z</time>
      </trkpt>
      <trkpt lat="43.57119" lon="6.3055">
        <ele>447.6</ele>
        <time>2020-02-02T12:16:13Z</time>
      </trkpt>
      <trkpt lat="43.57114" lon="6.30561">
        <ele>447.2</ele>
        <time>2020-02-02T12:16:32Z</time>
      </trkpt>
      <trkpt lat="43.57119" lon="6.30549">
        <ele>447.2</ele>
        <time>2020-02-02T12:16:41Z</time>
      </trkpt>
      <trkpt lat="43.57117" lon="6.30537">
        <ele>447.5</ele>
        <time>2020-02-02T12:16:51Z</time>
      </trkpt>
      <trkpt lat="43.57117" lon="6.30524">
        <ele>447.3</ele>
        <time>2020-02-02T12:17:00Z</time>
      </trkpt>
      <trkpt lat="43.57119" lon="6.3051">
        <ele>447.4</ele>
        <time>2020-02-02T12:17:10Z</time>
      </trkpt>
      <trkpt lat="43.57125" lon="6.305">
        <ele>447</ele>
        <time>2020-02-02T12:17:20Z</time>
      </trkpt>
      <trkpt lat="43.57133" lon="6.30492">
        <ele>447.6</ele>
        <time>2020-02-02T12:17:32Z</time>
      </trkpt>
      <trkpt lat="43.57135" lon="6.30479">
        <ele>448.2</ele>
        <time>2020-02-02T12:18:02Z</time>
      </trkpt>
      <trkpt lat="43.57133" lon="6.30467">
        <ele>448.2</ele>
        <time>2020-02-02T12:18:11Z</time>
      </trkpt>
      <trkpt lat="43.5713" lon="6.30455">
        <ele>448.1</ele>
        <time>2020-02-02T12:18:19Z</time>
      </trkpt>
      <trkpt lat="43.57136" lon="6.30444">
        <ele>447.7</ele>
        <time>2020-02-02T12:18:29Z</time>
      </trkpt>
      <trkpt lat="43.57142" lon="6.30452">
        <ele>446.3</ele>
        <time>2020-02-02T12:18:43Z</time>
      </trkpt>
      <trkpt lat="43.57149" lon="6.30462">
        <ele>446</ele>
        <time>2020-02-02T12:18:54Z</time>
      </trkpt>
      <trkpt lat="43.57154" lon="6.30473">
        <ele>445.2</ele>
        <time>2020-02-02T12:19:06Z</time>
      </trkpt>
      <trkpt lat="43.57158" lon="6.30485">
        <ele>443.7</ele>
        <time>2020-02-02T12:19:21Z</time>
      </trkpt>
      <trkpt lat="43.57161" lon="6.30498">
        <ele>441.9</ele>
        <time>2020-02-02T12:19:35Z</time>
      </trkpt>
      <trkpt lat="43.57168" lon="6.30507">
        <ele>440.6</ele>
        <time>2020-02-02T12:19:45Z</time>
      </trkpt>
      <trkpt lat="43.57176" lon="6.30516">
        <ele>439.6</ele>
        <time>2020-02-02T12:19:56Z</time>
      </trkpt>
      <trkpt lat="43.57183" lon="6.30525">
        <ele>438.2</ele>
        <time>2020-02-02T12:20:07Z</time>
      </trkpt>
      <trkpt lat="43.5719" lon="6.30533">
        <ele>436.8</ele>
        <time>2020-02-02T12:20:16Z</time>
      </trkpt>
      <trkpt lat="43.57198" lon="6.30541">
        <ele>435.4</ele>
        <time>2020-02-02T12:20:28Z</time>
      </trkpt>
      <trkpt lat="43.57204" lon="6.30551">
        <ele>434.4</ele>
        <time>2020-02-02T12:20:37Z</time>
      </trkpt>
      <trkpt lat="43.57212" lon="6.30556">
        <ele>433.6</ele>
        <time>2020-02-02T12:20:45Z</time>
      </trkpt>
      <trkpt lat="43.57222" lon="6.30558">
        <ele>432.4</ele>
        <time>2020-02-02T12:20:57Z</time>
      </trkpt>
      <trkpt lat="43.57231" lon="6.30563">
        <ele>431.4</ele>
        <time>2020-02-02T12:21:05Z</time>
      </trkpt>
      <trkpt lat="43.57237" lon="6.30572">
        <ele>430.3</ele>
        <time>2020-02-02T12:21:19Z</time>
      </trkpt>
      <trkpt lat="43.57247" lon="6.30575">
        <ele>430.3</ele>
        <time>2020-02-02T12:21:28Z</time>
      </trkpt>
      <trkpt lat="43.57255" lon="6.30582">
        <ele>429.8</ele>
        <time>2020-02-02T12:21:38Z</time>
      </trkpt>
      <trkpt lat="43.57264" lon="6.30581">
        <ele>429.8</ele>
        <time>2020-02-02T12:21:46Z</time>
      </trkpt>
      <trkpt lat="43.57272" lon="6.30575">
        <ele>429.3</ele>
        <time>2020-02-02T12:21:56Z</time>
      </trkpt>
      <trkpt lat="43.57281" lon="6.30569">
        <ele>428.6</ele>
        <time>2020-02-02T12:22:08Z</time>
      </trkpt>
      <trkpt lat="43.57287" lon="6.3056">
        <ele>427.4</ele>
        <time>2020-02-02T12:22:48Z</time>
      </trkpt>
      <trkpt lat="43.57291" lon="6.30549">
        <ele>427.2</ele>
        <time>2020-02-02T12:23:04Z</time>
      </trkpt>
      <trkpt lat="43.573" lon="6.30549">
        <ele>427.3</ele>
        <time>2020-02-02T12:23:30Z</time>
      </trkpt>
      <trkpt lat="43.57309" lon="6.30548">
        <ele>427.2</ele>
        <time>2020-02-02T12:23:43Z</time>
      </trkpt>
      <trkpt lat="43.57319" lon="6.30545">
        <ele>427.3</ele>
        <time>2020-02-02T12:23:53Z</time>
      </trkpt>
      <trkpt lat="43.57328" lon="6.30541">
        <ele>427.8</ele>
        <time>2020-02-02T12:24:03Z</time>
      </trkpt>
      <trkpt lat="43.57337" lon="6.30543">
        <ele>428.2</ele>
        <time>2020-02-02T12:24:19Z</time>
      </trkpt>
      <trkpt lat="43.57346" lon="6.30546">
        <ele>429.2</ele>
        <time>2020-02-02T12:24:33Z</time>
      </trkpt>
      <trkpt lat="43.57354" lon="6.30553">
        <ele>429.4</ele>
        <time>2020-02-02T12:24:47Z</time>
      </trkpt>
      <trkpt lat="43.57363" lon="6.30558">
        <ele>428.3</ele>
        <time>2020-02-02T12:25:02Z</time>
      </trkpt>
      <trkpt lat="43.57372" lon="6.30559">
        <ele>427.2</ele>
        <time>2020-02-02T12:25:13Z</time>
      </trkpt>
      <trkpt lat="43.5738" lon="6.30565">
        <ele>426</ele>
        <time>2020-02-02T12:25:27Z</time>
      </trkpt>
      <trkpt lat="43.5739" lon="6.3057">
        <ele>424.1</ele>
        <time>2020-02-02T12:25:43Z</time>
      </trkpt>
      <trkpt lat="43.57401" lon="6.30572">
        <ele>423.1</ele>
        <time>2020-02-02T12:26:02Z</time>
      </trkpt>
      <trkpt lat="43.57403" lon="6.3056">
        <ele>424.8</ele>
        <time>2020-02-02T12:26:29Z</time>
      </trkpt>
      <trkpt lat="43.57406" lon="6.30547">
        <ele>426.3</ele>
        <time>2020-02-02T12:26:43Z</time>
      </trkpt>
      <trkpt lat="43.57408" lon="6.30535">
        <ele>428.7</ele>
        <time>2020-02-02T12:26:58Z</time>
      </trkpt>
      <trkpt lat="43.57403" lon="6.30524">
        <ele>429.7</ele>
        <time>2020-02-02T12:27:07Z</time>
      </trkpt>
      <trkpt lat="43.57396" lon="6.30514">
        <ele>430.2</ele>
        <time>2020-02-02T12:27:18Z</time>
      </trkpt>
      <trkpt lat="43.57392" lon="6.30503">
        <ele>430.5</ele>
        <time>2020-02-02T12:27:27Z</time>
      </trkpt>
      <trkpt lat="43.57386" lon="6.30492">
        <ele>430.9</ele>
        <time>2020-02-02T12:27:40Z</time>
      </trkpt>
      <trkpt lat="43.57378" lon="6.30487">
        <ele>431.5</ele>
        <time>2020-02-02T12:27:50Z</time>
      </trkpt>
      <trkpt lat="43.57375" lon="6.30475">
        <ele>432.3</ele>
        <time>2020-02-02T12:28:05Z</time>
      </trkpt>
      <trkpt lat="43.57371" lon="6.30462">
        <ele>433</ele>
        <time>2020-02-02T12:28:20Z</time>
      </trkpt>
      <trkpt lat="43.57368" lon="6.3045">
        <ele>433.9</ele>
        <time>2020-02-02T12:28:38Z</time>
      </trkpt>
      <trkpt lat="43.57363" lon="6.30436">
        <ele>434.1</ele>
        <time>2020-02-02T12:29:15Z</time>
      </trkpt>
      <trkpt lat="43.5737" lon="6.30446">
        <ele>433.3</ele>
        <time>2020-02-02T12:30:54Z</time>
      </trkpt>
      <trkpt lat="43.57379" lon="6.30445">
        <ele>432</ele>
        <time>2020-02-02T12:31:08Z</time>
      </trkpt>
      <trkpt lat="43.57388" lon="6.30446">
        <ele>431.6</ele>
        <time>2020-02-02T12:31:17Z</time>
      </trkpt>
      <trkpt lat="43.57397" lon="6.30446">
        <ele>430.4</ele>
        <time>2020-02-02T12:31:34Z</time>
      </trkpt>
      <trkpt lat="43.57407" lon="6.30444">
        <ele>429.8</ele>
        <time>2020-02-02T12:31:46Z</time>
      </trkpt>
      <trkpt lat="43.57416" lon="6.30438">
        <ele>429.8</ele>
        <time>2020-02-02T12:31:54Z</time>
      </trkpt>
      <trkpt lat="43.57423" lon="6.30429">
        <ele>428.9</ele>
        <time>2020-02-02T12:32:04Z</time>
      </trkpt>
      <trkpt lat="43.57432" lon="6.3043">
        <ele>428.3</ele>
        <time>2020-02-02T12:32:15Z</time>
      </trkpt>
      <trkpt lat="43.57441" lon="6.30429">
        <ele>428.5</ele>
        <time>2020-02-02T12:32:29Z</time>
      </trkpt>
      <trkpt lat="43.57448" lon="6.30437">
        <ele>427.9</ele>
        <time>2020-02-02T12:34:15Z</time>
      </trkpt>
      <trkpt lat="43.57443" lon="6.30426">
        <ele>428.3</ele>
        <time>2020-02-02T12:34:32Z</time>
      </trkpt>
      <trkpt lat="43.57435" lon="6.30421">
        <ele>428.4</ele>
        <time>2020-02-02T12:34:37Z</time>
      </trkpt>
      <trkpt lat="43.57428" lon="6.30413">
        <ele>428.3</ele>
        <time>2020-02-02T12:34:47Z</time>
      </trkpt>
      <trkpt lat="43.57419" lon="6.30409">
        <ele>427</ele>
        <time>2020-02-02T12:35:16Z</time>
      </trkpt>
      <trkpt lat="43.57411" lon="6.30404">
        <ele>426.8</ele>
        <time>2020-02-02T12:35:25Z</time>
      </trkpt>
      <trkpt lat="43.57406" lon="6.30392">
        <ele>426.1</ele>
        <time>2020-02-02T12:35:35Z</time>
      </trkpt>
      <trkpt lat="43.57406" lon="6.30379">
        <ele>425.3</ele>
        <time>2020-02-02T12:35:47Z</time>
      </trkpt>
      <trkpt lat="43.57401" lon="6.30367">
        <ele>424.4</ele>
        <time>2020-02-02T12:35:58Z</time>
      </trkpt>
      <trkpt lat="43.57395" lon="6.30357">
        <ele>424.3</ele>
        <time>2020-02-02T12:36:08Z</time>
      </trkpt>
      <trkpt lat="43.57388" lon="6.3035">
        <ele>424.2</ele>
        <time>2020-02-02T12:36:16Z</time>
      </trkpt>
      <trkpt lat="43.5738" lon="6.30343">
        <ele>423.3</ele>
        <time>2020-02-02T12:36:31Z</time>
      </trkpt>
      <trkpt lat="43.57375" lon="6.30332">
        <ele>421.9</ele>
        <time>2020-02-02T12:37:11Z</time>
      </trkpt>
      <trkpt lat="43.5737" lon="6.30322">
        <ele>420.7</ele>
        <time>2020-02-02T12:37:23Z</time>
      </trkpt>
      <trkpt lat="43.57367" lon="6.3031">
        <ele>418.5</ele>
        <time>2020-02-02T12:37:38Z</time>
      </trkpt>
      <trkpt lat="43.5736" lon="6.30301">
        <ele>417.4</ele>
        <time>2020-02-02T12:37:54Z</time>
      </trkpt>
      <trkpt lat="43.57353" lon="6.30292">
        <ele>416.5</ele>
        <time>2020-02-02T12:38:09Z</time>
      </trkpt>
      <trkpt lat="43.57348" lon="6.30281">
        <ele>414.6</ele>
        <time>2020-02-02T12:38:27Z</time>
      </trkpt>
      <trkpt lat="43.57339" lon="6.30273">
        <ele>412.4</ele>
        <time>2020-02-02T12:38:38Z</time>
      </trkpt>
      <trkpt lat="43.57331" lon="6.30269">
        <ele>410.9</ele>
        <time>2020-02-02T12:38:48Z</time>
      </trkpt>
      <trkpt lat="43.57323" lon="6.30263">
        <ele>409.3</ele>
        <time>2020-02-02T12:39:00Z</time>
      </trkpt>
      <trkpt lat="43.57315" lon="6.30255">
        <ele>408</ele>
        <time>2020-02-02T12:39:12Z</time>
      </trkpt>
      <trkpt lat="43.57309" lon="6.30245">
        <ele>406.2</ele>
        <time>2020-02-02T12:39:24Z</time>
      </trkpt>
      <trkpt lat="43.57309" lon="6.30233">
        <ele>403.4</ele>
        <time>2020-02-02T12:39:41Z</time>
      </trkpt>
      <trkpt lat="43.57302" lon="6.30224">
        <ele>401.9</ele>
        <time>2020-02-02T12:39:52Z</time>
      </trkpt>
      <trkpt lat="43.57294" lon="6.30218">
        <ele>398.8</ele>
        <time>2020-02-02T12:40:34Z</time>
      </trkpt>
      <trkpt lat="43.57285" lon="6.30214">
        <ele>398.6</ele>
        <time>2020-02-02T12:40:56Z</time>
      </trkpt>
      <trkpt lat="43.57281" lon="6.30202">
        <ele>398.2</ele>
        <time>2020-02-02T12:41:22Z</time>
      </trkpt>
      <trkpt lat="43.57274" lon="6.30194">
        <ele>397.1</ele>
        <time>2020-02-02T12:41:34Z</time>
      </trkpt>
      <trkpt lat="43.57269" lon="6.30205">
        <ele>395.8</ele>
        <time>2020-02-02T12:42:11Z</time>
      </trkpt>
      <trkpt lat="43.57263" lon="6.30195">
        <ele>396.1</ele>
        <time>2020-02-02T12:42:36Z</time>
      </trkpt>
      <trkpt lat="43.57254" lon="6.30195">
        <ele>394.2</ele>
        <time>2020-02-02T12:43:29Z</time>
      </trkpt>
      <trkpt lat="43.5725" lon="6.30184">
        <ele>394.3</ele>
        <time>2020-02-02T12:44:03Z</time>
      </trkpt>
      <trkpt lat="43.5725" lon="6.30171">
        <ele>394</ele>
        <time>2020-02-02T12:44:22Z</time>
      </trkpt>
      <trkpt lat="43.57242" lon="6.30164">
        <ele>393.2</ele>
        <time>2020-02-02T12:44:42Z</time>
      </trkpt>
      <trkpt lat="43.57236" lon="6.30172">
        <ele>392.9</ele>
        <time>2020-02-02T12:45:02Z</time>
      </trkpt>
      <trkpt lat="43.57244" lon="6.30178">
        <ele>393.7</ele>
        <time>2020-02-02T12:45:20Z</time>
      </trkpt>
      <trkpt lat="43.57253" lon="6.30174">
        <ele>394</ele>
        <time>2020-02-02T12:45:31Z</time>
      </trkpt>
      <trkpt lat="43.57252" lon="6.30161">
        <ele>392.9</ele>
        <time>2020-02-02T12:46:04Z</time>
      </trkpt>
      <trkpt lat="43.57243" lon="6.30155">
        <ele>391.9</ele>
        <time>2020-02-02T12:47:37Z</time>
      </trkpt>
      <trkpt lat="43.57234" lon="6.30153">
        <ele>391.6</ele>
        <time>2020-02-02T12:48:00Z</time>
      </trkpt>
      <trkpt lat="43.5724" lon="6.30163">
        <ele>390.6</ele>
        <time>2020-02-02T12:48:42Z</time>
      </trkpt>
      <trkpt lat="43.57249" lon="6.30163">
        <ele>391.3</ele>
        <time>2020-02-02T12:48:54Z</time>
      </trkpt>
      <trkpt lat="43.57257" lon="6.30157">
        <ele>392.8</ele>
        <time>2020-02-02T12:49:07Z</time>
      </trkpt>
      <trkpt lat="43.57262" lon="6.30168">
        <ele>394.5</ele>
        <time>2020-02-02T12:49:56Z</time>
      </trkpt>
      <trkpt lat="43.57264" lon="6.3018">
        <ele>397.6</ele>
        <time>2020-02-02T12:50:29Z</time>
      </trkpt>
      <trkpt lat="43.57271" lon="6.30188">
        <ele>398.3</ele>
        <time>2020-02-02T12:50:39Z</time>
      </trkpt>
      <trkpt lat="43.57278" lon="6.30197">
        <ele>398.2</ele>
        <time>2020-02-02T12:50:47Z</time>
      </trkpt>
      <trkpt lat="43.57285" lon="6.30207">
        <ele>398.9</ele>
        <time>2020-02-02T12:50:58Z</time>
      </trkpt>
      <trkpt lat="43.57293" lon="6.30212">
        <ele>400.4</ele>
        <time>2020-02-02T12:51:11Z</time>
      </trkpt>
      <trkpt lat="43.57303" lon="6.30213">
        <ele>400.9</ele>
        <time>2020-02-02T12:51:18Z</time>
      </trkpt>
      <trkpt lat="43.57311" lon="6.3022">
        <ele>401.5</ele>
        <time>2020-02-02T12:51:28Z</time>
      </trkpt>
      <trkpt lat="43.57319" lon="6.30225">
        <ele>402.9</ele>
        <time>2020-02-02T12:51:40Z</time>
      </trkpt>
      <trkpt lat="43.57328" lon="6.30229">
        <ele>404</ele>
        <time>2020-02-02T12:51:50Z</time>
      </trkpt>
      <trkpt lat="43.57337" lon="6.30231">
        <ele>404.9</ele>
        <time>2020-02-02T12:51:59Z</time>
      </trkpt>
      <trkpt lat="43.57346" lon="6.30232">
        <ele>405.6</ele>
        <time>2020-02-02T12:52:09Z</time>
      </trkpt>
      <trkpt lat="43.57356" lon="6.30235">
        <ele>407.2</ele>
        <time>2020-02-02T12:52:27Z</time>
      </trkpt>
      <trkpt lat="43.57364" lon="6.30243">
        <ele>410.5</ele>
        <time>2020-02-02T12:53:00Z</time>
      </trkpt>
      <trkpt lat="43.57369" lon="6.30253">
        <ele>411.2</ele>
        <time>2020-02-02T12:53:15Z</time>
      </trkpt>
      <trkpt lat="43.57374" lon="6.30266">
        <ele>412.7</ele>
        <time>2020-02-02T12:53:41Z</time>
      </trkpt>
      <trkpt lat="43.5738" lon="6.30274">
        <ele>413.9</ele>
        <time>2020-02-02T12:54:34Z</time>
      </trkpt>
      <trkpt lat="43.57376" lon="6.30286">
        <ele>412.8</ele>
        <time>2020-02-02T12:55:09Z</time>
      </trkpt>
      <trkpt lat="43.57372" lon="6.30297">
        <ele>412.3</ele>
        <time>2020-02-02T12:55:41Z</time>
      </trkpt>
      <trkpt lat="43.57381" lon="6.30295">
        <ele>411.7</ele>
        <time>2020-02-02T12:56:30Z</time>
      </trkpt>
      <trkpt lat="43.57381" lon="6.30308">
        <ele>411.2</ele>
        <time>2020-02-02T12:57:22Z</time>
      </trkpt>
      <trkpt lat="43.57387" lon="6.30299">
        <ele>411.5</ele>
        <time>2020-02-02T12:58:26Z</time>
      </trkpt>
      <trkpt lat="43.57383" lon="6.30287">
        <ele>411.7</ele>
        <time>2020-02-02T12:58:39Z</time>
      </trkpt>
      <trkpt lat="43.57386" lon="6.30275">
        <ele>413.6</ele>
        <time>2020-02-02T12:59:45Z</time>
      </trkpt>
      <trkpt lat="43.57383" lon="6.30263">
        <ele>413.9</ele>
        <time>2020-02-02T13:00:02Z</time>
      </trkpt>
      <trkpt lat="43.57375" lon="6.30257">
        <ele>413</ele>
        <time>2020-02-02T13:01:40Z</time>
      </trkpt>
      <trkpt lat="43.57374" lon="6.30244">
        <ele>412.9</ele>
        <time>2020-02-02T13:03:13Z</time>
      </trkpt>
      <trkpt lat="43.57374" lon="6.30231">
        <ele>411.8</ele>
        <time>2020-02-02T13:03:27Z</time>
      </trkpt>
      <trkpt lat="43.57366" lon="6.30223">
        <ele>411.2</ele>
        <time>2020-02-02T13:03:43Z</time>
      </trkpt>
      <trkpt lat="43.57356" lon="6.3022">
        <ele>410.6</ele>
        <time>2020-02-02T13:03:54Z</time>
      </trkpt>
      <trkpt lat="43.57347" lon="6.30216">
        <ele>409.2</ele>
        <time>2020-02-02T13:04:08Z</time>
      </trkpt>
      <trkpt lat="43.57338" lon="6.30222">
        <ele>408.9</ele>
        <time>2020-02-02T13:04:18Z</time>
      </trkpt>
      <trkpt lat="43.57332" lon="6.30213">
        <ele>407.1</ele>
        <time>2020-02-02T13:04:39Z</time>
      </trkpt>
      <trkpt lat="43.57323" lon="6.30208">
        <ele>406.3</ele>
        <time>2020-02-02T13:04:47Z</time>
      </trkpt>
      <trkpt lat="43.57315" lon="6.30201">
        <ele>405.3</ele>
        <time>2020-02-02T13:05:00Z</time>
      </trkpt>
      <trkpt lat="43.57305" lon="6.30196">
        <ele>404.3</ele>
        <time>2020-02-02T13:05:11Z</time>
      </trkpt>
      <trkpt lat="43.57296" lon="6.30192">
        <ele>403.9</ele>
        <time>2020-02-02T13:05:18Z</time>
      </trkpt>
      <trkpt lat="43.57286" lon="6.30189">
        <ele>402.4</ele>
        <time>2020-02-02T13:05:33Z</time>
      </trkpt>
      <trkpt lat="43.57277" lon="6.30182">
        <ele>400.4</ele>
        <time>2020-02-02T13:06:02Z</time>
      </trkpt>
      <trkpt lat="43.57272" lon="6.30172">
        <ele>399.6</ele>
        <time>2020-02-02T13:06:16Z</time>
      </trkpt>
      <trkpt lat="43.57268" lon="6.30161">
        <ele>398.7</ele>
        <time>2020-02-02T13:06:25Z</time>
      </trkpt>
      <trkpt lat="43.57264" lon="6.30149">
        <ele>396.2</ele>
        <time>2020-02-02T13:06:56Z</time>
      </trkpt>
      <trkpt lat="43.57258" lon="6.30138">
        <ele>395.5</ele>
        <time>2020-02-02T13:07:05Z</time>
      </trkpt>
      <trkpt lat="43.57253" lon="6.30128">
        <ele>392.7</ele>
        <time>2020-02-02T13:07:32Z</time>
      </trkpt>
      <trkpt lat="43.57248" lon="6.30117">
        <ele>391.2</ele>
        <time>2020-02-02T13:07:45Z</time>
      </trkpt>
      <trkpt lat="43.57241" lon="6.30107">
        <ele>389.3</ele>
        <time>2020-02-02T13:07:59Z</time>
      </trkpt>
      <trkpt lat="43.57232" lon="6.30108">
        <ele>388</ele>
        <time>2020-02-02T13:08:29Z</time>
      </trkpt>
      <trkpt lat="43.57232" lon="6.30096">
        <ele>387.6</ele>
        <time>2020-02-02T13:09:09Z</time>
      </trkpt>
      <trkpt lat="43.57231" lon="6.30083">
        <ele>386.6</ele>
        <time>2020-02-02T13:09:21Z</time>
      </trkpt>
      <trkpt lat="43.57227" lon="6.30072">
        <ele>384.9</ele>
        <time>2020-02-02T13:09:35Z</time>
      </trkpt>
      <trkpt lat="43.57223" lon="6.3006">
        <ele>383.1</ele>
        <time>2020-02-02T13:09:47Z</time>
      </trkpt>
      <trkpt lat="43.5722" lon="6.30048">
        <ele>380.8</ele>
        <time>2020-02-02T13:10:05Z</time>
      </trkpt>
      <trkpt lat="43.57222" lon="6.30035">
        <ele>379.5</ele>
        <time>2020-02-02T13:10:16Z</time>
      </trkpt>
      <trkpt lat="43.57223" lon="6.30022">
        <ele>378.4</ele>
        <time>2020-02-02T13:10:28Z</time>
      </trkpt>
      <trkpt lat="43.57228" lon="6.30012">
        <ele>377.2</ele>
        <time>2020-02-02T13:10:38Z</time>
      </trkpt>
      <trkpt lat="43.57233" lon="6.3">
        <ele>376</ele>
        <time>2020-02-02T13:10:53Z</time>
      </trkpt>
      <trkpt lat="43.57237" lon="6.29988">
        <ele>376.2</ele>
        <time>2020-02-02T13:11:01Z</time>
      </trkpt>
      <trkpt lat="43.57243" lon="6.29978">
        <ele>376.3</ele>
        <time>2020-02-02T13:11:10Z</time>
      </trkpt>
      <trkpt lat="43.57248" lon="6.29967">
        <ele>375.9</ele>
        <time>2020-02-02T13:11:16Z</time>
      </trkpt>
      <trkpt lat="43.57254" lon="6.29956">
        <ele>374.9</ele>
        <time>2020-02-02T13:11:27Z</time>
      </trkpt>
      <trkpt lat="43.57253" lon="6.29943">
        <ele>374.4</ele>
        <time>2020-02-02T13:11:35Z</time>
      </trkpt>
      <trkpt lat="43.57256" lon="6.2993">
        <ele>373.8</ele>
        <time>2020-02-02T13:11:43Z</time>
      </trkpt>
      <trkpt lat="43.57255" lon="6.29917">
        <ele>373.2</ele>
        <time>2020-02-02T13:11:51Z</time>
      </trkpt>
      <trkpt lat="43.5726" lon="6.29906">
        <ele>373.3</ele>
        <time>2020-02-02T13:12:00Z</time>
      </trkpt>
      <trkpt lat="43.57261" lon="6.29893">
        <ele>373.3</ele>
        <time>2020-02-02T13:12:08Z</time>
      </trkpt>
      <trkpt lat="43.57261" lon="6.2988">
        <ele>372.9</ele>
        <time>2020-02-02T13:12:16Z</time>
      </trkpt>
      <trkpt lat="43.57259" lon="6.29867">
        <ele>372.4</ele>
        <time>2020-02-02T13:12:24Z</time>
      </trkpt>
      <trkpt lat="43.57257" lon="6.29855">
        <ele>371.9</ele>
        <time>2020-02-02T13:12:31Z</time>
      </trkpt>
      <trkpt lat="43.57254" lon="6.29843">
        <ele>371.5</ele>
        <time>2020-02-02T13:12:37Z</time>
      </trkpt>
      <trkpt lat="43.57252" lon="6.29829">
        <ele>371.5</ele>
        <time>2020-02-02T13:12:50Z</time>
      </trkpt>
      <trkpt lat="43.5725" lon="6.29816">
        <ele>371.7</ele>
        <time>2020-02-02T13:13:02Z</time>
      </trkpt>
      <trkpt lat="43.57246" lon="6.29804">
        <ele>372.1</ele>
        <time>2020-02-02T13:13:11Z</time>
      </trkpt>
      <trkpt lat="43.57245" lon="6.29792">
        <ele>371.9</ele>
        <time>2020-02-02T13:13:20Z</time>
      </trkpt>
      <trkpt lat="43.57244" lon="6.29778">
        <ele>371.5</ele>
        <time>2020-02-02T13:13:31Z</time>
      </trkpt>
      <trkpt lat="43.57241" lon="6.29766">
        <ele>370.8</ele>
        <time>2020-02-02T13:13:42Z</time>
      </trkpt>
      <trkpt lat="43.57235" lon="6.29755">
        <ele>370.3</ele>
        <time>2020-02-02T13:13:51Z</time>
      </trkpt>
      <trkpt lat="43.57233" lon="6.29767">
        <ele>369.3</ele>
        <time>2020-02-02T13:14:25Z</time>
      </trkpt>
      <trkpt lat="43.57225" lon="6.29773">
        <ele>367.9</ele>
        <time>2020-02-02T13:14:57Z</time>
      </trkpt>
      <trkpt lat="43.57221" lon="6.29784">
        <ele>366.5</ele>
        <time>2020-02-02T13:15:07Z</time>
      </trkpt>
      <trkpt lat="43.57219" lon="6.29798">
        <ele>364.6</ele>
        <time>2020-02-02T13:15:32Z</time>
      </trkpt>
      <trkpt lat="43.57222" lon="6.2981">
        <ele>364.2</ele>
        <time>2020-02-02T13:15:43Z</time>
      </trkpt>
      <trkpt lat="43.5722" lon="6.29822">
        <ele>363.9</ele>
        <time>2020-02-02T13:16:51Z</time>
      </trkpt>
      <trkpt lat="43.57222" lon="6.2981">
        <ele>364.5</ele>
        <time>2020-02-02T13:17:31Z</time>
      </trkpt>
      <trkpt lat="43.57222" lon="6.29796">
        <ele>365.5</ele>
        <time>2020-02-02T13:17:47Z</time>
      </trkpt>
      <trkpt lat="43.57218" lon="6.29785">
        <ele>365.8</ele>
        <time>2020-02-02T13:17:55Z</time>
      </trkpt>
      <trkpt lat="43.57212" lon="6.29775">
        <ele>367</ele>
        <time>2020-02-02T13:18:07Z</time>
      </trkpt>
      <trkpt lat="43.57208" lon="6.29762">
        <ele>367.8</ele>
        <time>2020-02-02T13:18:18Z</time>
      </trkpt>
      <trkpt lat="43.57207" lon="6.2975">
        <ele>368.7</ele>
        <time>2020-02-02T13:18:28Z</time>
      </trkpt>
      <trkpt lat="43.57205" lon="6.29737">
        <ele>369.3</ele>
        <time>2020-02-02T13:18:39Z</time>
      </trkpt>
      <trkpt lat="43.57202" lon="6.29725">
        <ele>368.9</ele>
        <time>2020-02-02T13:18:48Z</time>
      </trkpt>
      <trkpt lat="43.57199" lon="6.29712">
        <ele>368.5</ele>
        <time>2020-02-02T13:18:57Z</time>
      </trkpt>
      <trkpt lat="43.57197" lon="6.29699">
        <ele>368</ele>
        <time>2020-02-02T13:19:06Z</time>
      </trkpt>
      <trkpt lat="43.57193" lon="6.29687">
        <ele>367.4</ele>
        <time>2020-02-02T13:19:14Z</time>
      </trkpt>
      <trkpt lat="43.5719" lon="6.29674">
        <ele>366.9</ele>
        <time>2020-02-02T13:19:25Z</time>
      </trkpt>
      <trkpt lat="43.57186" lon="6.29662">
        <ele>366.7</ele>
        <time>2020-02-02T13:19:32Z</time>
      </trkpt>
      <trkpt lat="43.5718" lon="6.29652">
        <ele>366.2</ele>
        <time>2020-02-02T13:19:41Z</time>
      </trkpt>
      <trkpt lat="43.57184" lon="6.29641">
        <ele>364.5</ele>
        <time>2020-02-02T13:20:02Z</time>
      </trkpt>
      <trkpt lat="43.57193" lon="6.29636">
        <ele>364.1</ele>
        <time>2020-02-02T13:20:19Z</time>
      </trkpt>
      <trkpt lat="43.57185" lon="6.29628">
        <ele>362.7</ele>
        <time>2020-02-02T13:20:59Z</time>
      </trkpt>
      <trkpt lat="43.57191" lon="6.29619">
        <ele>358.6</ele>
        <time>2020-02-02T13:22:08Z</time>
      </trkpt>
      <trkpt lat="43.57202" lon="6.29621">
        <ele>358</ele>
        <time>2020-02-02T13:22:52Z</time>
      </trkpt>
      <trkpt lat="43.57195" lon="6.29613">
        <ele>359.3</ele>
        <time>2020-02-02T13:23:39Z</time>
      </trkpt>
      <trkpt lat="43.57187" lon="6.2962">
        <ele>361.5</ele>
        <time>2020-02-02T13:23:55Z</time>
      </trkpt>
      <trkpt lat="43.57181" lon="6.29629">
        <ele>362.6</ele>
        <time>2020-02-02T13:24:18Z</time>
      </trkpt>
      <trkpt lat="43.57173" lon="6.29634">
        <ele>363.5</ele>
        <time>2020-02-02T13:25:01Z</time>
      </trkpt>
      <trkpt lat="43.57165" lon="6.29627">
        <ele>363.9</ele>
        <time>2020-02-02T13:25:44Z</time>
      </trkpt>
      <trkpt lat="43.57161" lon="6.29615">
        <ele>363.8</ele>
        <time>2020-02-02T13:25:59Z</time>
      </trkpt>
      <trkpt lat="43.57155" lon="6.29604">
        <ele>363.2</ele>
        <time>2020-02-02T13:26:11Z</time>
      </trkpt>
      <trkpt lat="43.57147" lon="6.29597">
        <ele>363.4</ele>
        <time>2020-02-02T13:26:19Z</time>
      </trkpt>
      <trkpt lat="43.57141" lon="6.29586">
        <ele>363.3</ele>
        <time>2020-02-02T13:26:28Z</time>
      </trkpt>
      <trkpt lat="43.57133" lon="6.29579">
        <ele>363.3</ele>
        <time>2020-02-02T13:26:36Z</time>
      </trkpt>
      <trkpt lat="43.57124" lon="6.29575">
        <ele>363.6</ele>
        <time>2020-02-02T13:26:44Z</time>
      </trkpt>
      <trkpt lat="43.57114" lon="6.29573">
        <ele>363.7</ele>
        <time>2020-02-02T13:26:54Z</time>
      </trkpt>
      <trkpt lat="43.57105" lon="6.29573">
        <ele>363.6</ele>
        <time>2020-02-02T13:27:02Z</time>
      </trkpt>
      <trkpt lat="43.57096" lon="6.29579">
        <ele>363.5</ele>
        <time>2020-02-02T13:27:11Z</time>
      </trkpt>
      <trkpt lat="43.57091" lon="6.29589">
        <ele>363.5</ele>
        <time>2020-02-02T13:27:19Z</time>
      </trkpt>
      <trkpt lat="43.57087" lon="6.296">
        <ele>363.7</ele>
        <time>2020-02-02T13:27:32Z</time>
      </trkpt>
      <trkpt lat="43.57079" lon="6.29607">
        <ele>363.7</ele>
        <time>2020-02-02T13:27:40Z</time>
      </trkpt>
      <trkpt lat="43.5707" lon="6.29614">
        <ele>363.6</ele>
        <time>2020-02-02T13:27:49Z</time>
      </trkpt>
      <trkpt lat="43.57063" lon="6.2962">
        <ele>364.1</ele>
        <time>2020-02-02T13:27:57Z</time>
      </trkpt>
      <trkpt lat="43.57058" lon="6.29633">
        <ele>364.1</ele>
        <time>2020-02-02T13:28:06Z</time>
      </trkpt>
      <trkpt lat="43.57054" lon="6.29645">
        <ele>364.5</ele>
        <time>2020-02-02T13:28:15Z</time>
      </trkpt>
      <trkpt lat="43.57046" lon="6.29652">
        <ele>364.8</ele>
        <time>2020-02-02T13:28:27Z</time>
      </trkpt>
      <trkpt lat="43.5704" lon="6.29643">
        <ele>364.7</ele>
        <time>2020-02-02T13:28:37Z</time>
      </trkpt>
      <trkpt lat="43.57035" lon="6.29632">
        <ele>364.9</ele>
        <time>2020-02-02T13:28:50Z</time>
      </trkpt>
      <trkpt lat="43.57027" lon="6.29626">
        <ele>365.1</ele>
        <time>2020-02-02T13:29:00Z</time>
      </trkpt>
      <trkpt lat="43.57018" lon="6.29623">
        <ele>365.9</ele>
        <time>2020-02-02T13:29:15Z</time>
      </trkpt>
      <trkpt lat="43.57009" lon="6.2962">
        <ele>367.1</ele>
        <time>2020-02-02T13:29:29Z</time>
      </trkpt>
      <trkpt lat="43.57001" lon="6.29615">
        <ele>367.9</ele>
        <time>2020-02-02T13:29:38Z</time>
      </trkpt>
      <trkpt lat="43.56991" lon="6.29616">
        <ele>367.9</ele>
        <time>2020-02-02T13:29:49Z</time>
      </trkpt>
      <trkpt lat="43.56981" lon="6.29617">
        <ele>366.9</ele>
        <time>2020-02-02T13:30:08Z</time>
      </trkpt>
      <trkpt lat="43.56973" lon="6.29623">
        <ele>365.6</ele>
        <time>2020-02-02T13:30:24Z</time>
      </trkpt>
      <trkpt lat="43.56965" lon="6.29618">
        <ele>364.7</ele>
        <time>2020-02-02T13:30:41Z</time>
      </trkpt>
      <trkpt lat="43.56957" lon="6.29611">
        <ele>364.5</ele>
        <time>2020-02-02T13:30:55Z</time>
      </trkpt>
      <trkpt lat="43.56953" lon="6.29599">
        <ele>363.5</ele>
        <time>2020-02-02T13:33:10Z</time>
      </trkpt>
      <trkpt lat="43.56949" lon="6.29588">
        <ele>363</ele>
        <time>2020-02-02T13:33:33Z</time>
      </trkpt>
      <trkpt lat="43.56949" lon="6.29575">
        <ele>362.7</ele>
        <time>2020-02-02T13:33:42Z</time>
      </trkpt>
      <trkpt lat="43.56945" lon="6.29563">
        <ele>362.5</ele>
        <time>2020-02-02T13:33:51Z</time>
      </trkpt>
      <trkpt lat="43.56939" lon="6.29554">
        <ele>362.6</ele>
        <time>2020-02-02T13:34:10Z</time>
      </trkpt>
      <trkpt lat="43.56937" lon="6.2954">
        <ele>362.4</ele>
        <time>2020-02-02T13:34:20Z</time>
      </trkpt>
      <trkpt lat="43.56934" lon="6.29527">
        <ele>362.5</ele>
        <time>2020-02-02T13:34:29Z</time>
      </trkpt>
      <trkpt lat="43.5693" lon="6.29516">
        <ele>362.6</ele>
        <time>2020-02-02T13:34:38Z</time>
      </trkpt>
      <trkpt lat="43.56924" lon="6.29506">
        <ele>364.6</ele>
        <time>2020-02-02T13:35:04Z</time>
      </trkpt>
      <trkpt lat="43.56916" lon="6.29499">
        <ele>364.7</ele>
        <time>2020-02-02T13:36:10Z</time>
      </trkpt>
      <trkpt lat="43.56907" lon="6.29501">
        <ele>367.7</ele>
        <time>2020-02-02T13:36:33Z</time>
      </trkpt>
      <trkpt lat="43.56899" lon="6.29505">
        <ele>369.9</ele>
        <time>2020-02-02T13:36:57Z</time>
      </trkpt>
      <trkpt lat="43.56895" lon="6.29517">
        <ele>373.6</ele>
        <time>2020-02-02T13:37:55Z</time>
      </trkpt>
      <trkpt lat="43.56897" lon="6.29505">
        <ele>374.2</ele>
        <time>2020-02-02T13:41:02Z</time>
      </trkpt>
      <trkpt lat="43.56905" lon="6.29497">
        <ele>369.5</ele>
        <time>2020-02-02T13:41:40Z</time>
      </trkpt>
      <trkpt lat="43.56908" lon="6.29485">
        <ele>368.9</ele>
        <time>2020-02-02T13:53:39Z</time>
      </trkpt>
      <trkpt lat="43.56904" lon="6.29473">
        <ele>368.6</ele>
        <time>2020-02-02T13:53:51Z</time>
      </trkpt>
      <trkpt lat="43.56903" lon="6.2946">
        <ele>368.1</ele>
        <time>2020-02-02T13:54:08Z</time>
      </trkpt>
      <trkpt lat="43.56904" lon="6.29447">
        <ele>366.7</ele>
        <time>2020-02-02T13:54:24Z</time>
      </trkpt>
      <trkpt lat="43.56905" lon="6.29434">
        <ele>365.4</ele>
        <time>2020-02-02T13:54:37Z</time>
      </trkpt>
      <trkpt lat="43.56907" lon="6.29421">
        <ele>364</ele>
        <time>2020-02-02T13:54:50Z</time>
      </trkpt>
      <trkpt lat="43.56914" lon="6.29411">
        <ele>363.5</ele>
        <time>2020-02-02T13:55:05Z</time>
      </trkpt>
      <trkpt lat="43.56916" lon="6.29399">
        <ele>363</ele>
        <time>2020-02-02T13:55:15Z</time>
      </trkpt>
      <trkpt lat="43.5691" lon="6.29388">
        <ele>361.1</ele>
        <time>2020-02-02T13:55:36Z</time>
      </trkpt>
      <trkpt lat="43.56908" lon="6.29376">
        <ele>358.3</ele>
        <time>2020-02-02T13:56:10Z</time>
      </trkpt>
      <trkpt lat="43.56909" lon="6.29363">
        <ele>355.5</ele>
        <time>2020-02-02T13:57:24Z</time>
      </trkpt>
      <trkpt lat="43.56902" lon="6.29354">
        <ele>352.8</ele>
        <time>2020-02-02T13:57:46Z</time>
      </trkpt>
      <trkpt lat="43.56893" lon="6.29351">
        <ele>350.4</ele>
        <time>2020-02-02T13:58:02Z</time>
      </trkpt>
      <trkpt lat="43.56892" lon="6.29338">
        <ele>348.7</ele>
        <time>2020-02-02T13:58:20Z</time>
      </trkpt>
      <trkpt lat="43.56898" lon="6.29329">
        <ele>345.9</ele>
        <time>2020-02-02T13:58:44Z</time>
      </trkpt>
      <trkpt lat="43.56903" lon="6.29318">
        <ele>345.1</ele>
        <time>2020-02-02T13:58:55Z</time>
      </trkpt>
      <trkpt lat="43.56905" lon="6.29305">
        <ele>343.7</ele>
        <time>2020-02-02T13:59:09Z</time>
      </trkpt>
      <trkpt lat="43.56906" lon="6.29293">
        <ele>341.6</ele>
        <time>2020-02-02T13:59:33Z</time>
      </trkpt>
      <trkpt lat="43.56904" lon="6.29281">
        <ele>341.7</ele>
        <time>2020-02-02T13:59:59Z</time>
      </trkpt>
      <trkpt lat="43.56895" lon="6.29277">
        <ele>343.3</ele>
        <time>2020-02-02T14:00:23Z</time>
      </trkpt>
      <trkpt lat="43.56888" lon="6.29267">
        <ele>346.1</ele>
        <time>2020-02-02T14:00:48Z</time>
      </trkpt>
      <trkpt lat="43.56882" lon="6.29258">
        <ele>346.5</ele>
        <time>2020-02-02T14:01:03Z</time>
      </trkpt>
      <trkpt lat="43.56875" lon="6.2925">
        <ele>347.1</ele>
        <time>2020-02-02T14:01:18Z</time>
      </trkpt>
      <trkpt lat="43.56866" lon="6.29246">
        <ele>347.9</ele>
        <time>2020-02-02T14:01:31Z</time>
      </trkpt>
      <trkpt lat="43.56857" lon="6.29243">
        <ele>347.6</ele>
        <time>2020-02-02T14:01:48Z</time>
      </trkpt>
      <trkpt lat="43.56848" lon="6.29246">
        <ele>347.7</ele>
        <time>2020-02-02T14:02:07Z</time>
      </trkpt>
      <trkpt lat="43.56842" lon="6.29257">
        <ele>347.7</ele>
        <time>2020-02-02T14:02:25Z</time>
      </trkpt>
      <trkpt lat="43.56836" lon="6.29266">
        <ele>347.5</ele>
        <time>2020-02-02T14:02:38Z</time>
      </trkpt>
      <trkpt lat="43.56827" lon="6.2927">
        <ele>346.7</ele>
        <time>2020-02-02T14:02:49Z</time>
      </trkpt>
      <trkpt lat="43.56819" lon="6.29277">
        <ele>346.8</ele>
        <time>2020-02-02T14:03:13Z</time>
      </trkpt>
      <trkpt lat="43.56811" lon="6.29283">
        <ele>345.6</ele>
        <time>2020-02-02T14:03:33Z</time>
      </trkpt>
      <trkpt lat="43.56803" lon="6.29291">
        <ele>344.7</ele>
        <time>2020-02-02T14:03:47Z</time>
      </trkpt>
      <trkpt lat="43.56797" lon="6.29301">
        <ele>344.1</ele>
        <time>2020-02-02T14:03:58Z</time>
      </trkpt>
      <trkpt lat="43.5679" lon="6.2931">
        <ele>343.7</ele>
        <time>2020-02-02T14:04:12Z</time>
      </trkpt>
      <trkpt lat="43.56783" lon="6.2932">
        <ele>343.7</ele>
        <time>2020-02-02T14:04:28Z</time>
      </trkpt>
      <trkpt lat="43.56783" lon="6.29333">
        <ele>344.2</ele>
        <time>2020-02-02T14:04:49Z</time>
      </trkpt>
      <trkpt lat="43.56773" lon="6.29344">
        <ele>343</ele>
        <time>2020-02-02T14:05:34Z</time>
      </trkpt>
      <trkpt lat="43.5679" lon="6.29331">
        <ele>343</ele>
        <time>2020-02-02T14:05:46Z</time>
      </trkpt>
      <trkpt lat="43.56781" lon="6.29335">
        <ele>344.5</ele>
        <time>2020-02-02T14:06:18Z</time>
      </trkpt>
      <trkpt lat="43.56773" lon="6.2934">
        <ele>345</ele>
        <time>2020-02-02T14:06:42Z</time>
      </trkpt>
      <trkpt lat="43.56764" lon="6.29344">
        <ele>343.4</ele>
        <time>2020-02-02T14:07:08Z</time>
      </trkpt>
      <trkpt lat="43.56755" lon="6.29349">
        <ele>342.6</ele>
        <time>2020-02-02T14:07:20Z</time>
      </trkpt>
      <trkpt lat="43.56746" lon="6.2935">
        <ele>341.8</ele>
        <time>2020-02-02T14:07:30Z</time>
      </trkpt>
      <trkpt lat="43.56737" lon="6.29353">
        <ele>340.9</ele>
        <time>2020-02-02T14:07:42Z</time>
      </trkpt>
      <trkpt lat="43.56728" lon="6.29353">
        <ele>340.1</ele>
        <time>2020-02-02T14:07:51Z</time>
      </trkpt>
      <trkpt lat="43.56719" lon="6.29355">
        <ele>339</ele>
        <time>2020-02-02T14:08:00Z</time>
      </trkpt>
      <trkpt lat="43.56709" lon="6.29356">
        <ele>338.4</ele>
        <time>2020-02-02T14:08:08Z</time>
      </trkpt>
      <trkpt lat="43.567" lon="6.2936">
        <ele>338.1</ele>
        <time>2020-02-02T14:08:16Z</time>
      </trkpt>
      <trkpt lat="43.56693" lon="6.29369">
        <ele>337.6</ele>
        <time>2020-02-02T14:08:46Z</time>
      </trkpt>
      <trkpt lat="43.56691" lon="6.29381">
        <ele>337.2</ele>
        <time>2020-02-02T14:09:36Z</time>
      </trkpt>
      <trkpt lat="43.56681" lon="6.29382">
        <ele>336.7</ele>
        <time>2020-02-02T14:10:24Z</time>
      </trkpt>
      <trkpt lat="43.56671" lon="6.29383">
        <ele>335.7</ele>
        <time>2020-02-02T14:10:34Z</time>
      </trkpt>
      <trkpt lat="43.56661" lon="6.29383">
        <ele>334.6</ele>
        <time>2020-02-02T14:10:43Z</time>
      </trkpt>
      <trkpt lat="43.56652" lon="6.29385">
        <ele>333.5</ele>
        <time>2020-02-02T14:10:51Z</time>
      </trkpt>
      <trkpt lat="43.56642" lon="6.29385">
        <ele>332.5</ele>
        <time>2020-02-02T14:10:59Z</time>
      </trkpt>
      <trkpt lat="43.56633" lon="6.29381">
        <ele>332</ele>
        <time>2020-02-02T14:11:09Z</time>
      </trkpt>
      <trkpt lat="43.56625" lon="6.29375">
        <ele>331.4</ele>
        <time>2020-02-02T14:11:17Z</time>
      </trkpt>
      <trkpt lat="43.56619" lon="6.29365">
        <ele>330.5</ele>
        <time>2020-02-02T14:11:26Z</time>
      </trkpt>
      <trkpt lat="43.56612" lon="6.29356">
        <ele>328.7</ele>
        <time>2020-02-02T14:11:40Z</time>
      </trkpt>
      <trkpt lat="43.5662" lon="6.29349">
        <ele>327</ele>
        <time>2020-02-02T14:12:05Z</time>
      </trkpt>
      <trkpt lat="43.56627" lon="6.29339">
        <ele>326.3</ele>
        <time>2020-02-02T14:12:16Z</time>
      </trkpt>
      <trkpt lat="43.56635" lon="6.29333">
        <ele>326.4</ele>
        <time>2020-02-02T14:12:23Z</time>
      </trkpt>
      <trkpt lat="43.56644" lon="6.29327">
        <ele>326.6</ele>
        <time>2020-02-02T14:12:32Z</time>
      </trkpt>
      <trkpt lat="43.5665" lon="6.29318">
        <ele>326.5</ele>
        <time>2020-02-02T14:12:46Z</time>
      </trkpt>
      <trkpt lat="43.56656" lon="6.29307">
        <ele>325.7</ele>
        <time>2020-02-02T14:12:59Z</time>
      </trkpt>
      <trkpt lat="43.56662" lon="6.29297">
        <ele>325.5</ele>
        <time>2020-02-02T14:13:10Z</time>
      </trkpt>
      <trkpt lat="43.56668" lon="6.29288">
        <ele>325.9</ele>
        <time>2020-02-02T14:13:20Z</time>
      </trkpt>
      <trkpt lat="43.56666" lon="6.29275">
        <ele>325.4</ele>
        <time>2020-02-02T14:13:30Z</time>
      </trkpt>
      <trkpt lat="43.56666" lon="6.29288">
        <ele>324.8</ele>
        <time>2020-02-02T14:14:31Z</time>
      </trkpt>
      <trkpt lat="43.56658" lon="6.29298">
        <ele>324.9</ele>
        <time>2020-02-02T14:15:31Z</time>
      </trkpt>
      <trkpt lat="43.56652" lon="6.29308">
        <ele>324.4</ele>
        <time>2020-02-02T14:15:41Z</time>
      </trkpt>
      <trkpt lat="43.56646" lon="6.29316">
        <ele>324.3</ele>
        <time>2020-02-02T14:15:52Z</time>
      </trkpt>
      <trkpt lat="43.56637" lon="6.29323">
        <ele>325</ele>
        <time>2020-02-02T14:16:03Z</time>
      </trkpt>
      <trkpt lat="43.56629" lon="6.29332">
        <ele>325.5</ele>
        <time>2020-02-02T14:16:14Z</time>
      </trkpt>
      <trkpt lat="43.56624" lon="6.29343">
        <ele>325.8</ele>
        <time>2020-02-02T14:16:23Z</time>
      </trkpt>
      <trkpt lat="43.56618" lon="6.29354">
        <ele>325.9</ele>
        <time>2020-02-02T14:16:34Z</time>
      </trkpt>
      <trkpt lat="43.5661" lon="6.29358">
        <ele>326.1</ele>
        <time>2020-02-02T14:16:43Z</time>
      </trkpt>
      <trkpt lat="43.56601" lon="6.29355">
        <ele>326.2</ele>
        <time>2020-02-02T14:16:51Z</time>
      </trkpt>
      <trkpt lat="43.56592" lon="6.29349">
        <ele>326</ele>
        <time>2020-02-02T14:17:00Z</time>
      </trkpt>
      <trkpt lat="43.56585" lon="6.29342">
        <ele>325.5</ele>
        <time>2020-02-02T14:17:08Z</time>
      </trkpt>
      <trkpt lat="43.56576" lon="6.29338">
        <ele>325.3</ele>
        <time>2020-02-02T14:17:15Z</time>
      </trkpt>
      <trkpt lat="43.56567" lon="6.29333">
        <ele>324.8</ele>
        <time>2020-02-02T14:17:23Z</time>
      </trkpt>
      <trkpt lat="43.56558" lon="6.29339">
        <ele>324.9</ele>
        <time>2020-02-02T14:17:32Z</time>
      </trkpt>
      <trkpt lat="43.56549" lon="6.29346">
        <ele>324.6</ele>
        <time>2020-02-02T14:17:41Z</time>
      </trkpt>
      <trkpt lat="43.56544" lon="6.29335">
        <ele>323.5</ele>
        <time>2020-02-02T14:18:56Z</time>
      </trkpt>
      <trkpt lat="43.56547" lon="6.29348">
        <ele>323.9</ele>
        <time>2020-02-02T14:19:12Z</time>
      </trkpt>
      <trkpt lat="43.56549" lon="6.29353">
        <ele>324</ele>
        <time>2020-02-02T14:19:24Z</time>
      </trkpt>
    </trkseg>
  </trk>
</gpx>